Time,TemperatureF,DewpointF,PressureIn,WindDirection,WindDirectionDegrees,WindSpeedMPH,WindSpeedGustMPH,Humidity,HourlyPrecipIn,Conditions,Clouds,dailyrainin,SoftwareType,DateUTC
2013-02-14 00:00:00,27.9,27.7,29.57,SSW,202,0.0,0.0,99,0.00,,,0.00,VWS V12.07,2013-02-14 06:00:00,
2013-02-14 00:01:00,27.9,27.7,29.57,SSW,202,0.0,0.0,99,0.00,,,0.00,VWS V12.07,2013-02-14 06:01:00,
2013-02-14 00:02:00,27.9,27.7,29.57,SSW,202,0.0,0.0,99,0.00,,,0.00,VWS V12.07,2013-02-14 06:02:00,
2013-02-14 00:06:00,27.9,27.7,29.57,SSW,202,0.0,0.0,99,0.00,,,0.00,VWS V12.07,2013-02-14 06:06:00,
2013-02-14 00:07:00,27.9,27.7,29.57,SSW,202,0.0,0.0,99,0.00,,,0.00,VWS V12.07,2013-02-14 06:07:00,
2013-02-14 00:10:00,27.9,27.7,29.57,SSW,202,0.0,0.0,99,0.00,,,0.00,VWS V12.07,2013-02-14 06:10:00,
2013-02-14 00:12:00,27.8,27.6,29.57,SSW,202,0.0,0.0,99,0.00,,,0.00,VWS V12.07,2013-02-14 06:12:00,
2013-02-14 00:17:00,27.8,27.6,29.57,SSW,202,0.0,0.0,99,0.00,,,0.00,VWS V12.07,2013-02-14 06:17:00,
2013-02-14 00:18:00,27.8,27.6,29.57,SSW,202,0.0,0.0,99,0.00,,,0.00,VWS V12.07,2013-02-14 06:18:00,
2013-02-14 00:20:00,27.9,27.7,29.57,SSW,202,0.0,0.0,99,0.00,,,0.00,VWS V12.07,2013-02-14 06:20:00,
2013-02-14 00:22:00,27.8,27.6,29.57,SSW,202,0.0,0.0,99,0.00,,,0.00,VWS V12.07,2013-02-14 06:22:00,
2013-02-14 00:23:00,27.8,27.6,29.57,SSW,202,0.0,0.0,99,0.00,,,0.00,VWS V12.07,2013-02-14 06:23:00,
2013-02-14 00:27:00,27.8,27.6,29.57,SSW,202,0.0,0.0,99,0.00,,,0.00,VWS V12.07,2013-02-14 06:27:00,
2013-02-14 00:28:00,27.8,27.6,29.57,SSW,202,0.0,0.0,99,0.00,,,0.00,VWS V12.07,2013-02-14 06:28:00,
2013-02-14 00:30:00,27.8,27.6,29.57,SSW,202,0.0,0.0,99,0.00,,,0.00,VWS V12.07,2013-02-14 06:30:00,
2013-02-14 00:32:00,27.8,27.6,29.58,SSW,202,0.0,0.0,99,0.00,,,0.00,VWS V12.07,2013-02-14 06:32:00,
2013-02-14 00:33:00,27.8,27.6,29.58,SSW,202,0.0,0.0,99,0.00,,,0.00,VWS V12.07,2013-02-14 06:33:00,
2013-02-14 00:37:00,27.9,27.7,29.58,SSW,202,0.0,0.0,99,0.00,,,0.00,VWS V12.07,2013-02-14 06:37:00,
2013-02-14 00:38:00,27.8,27.6,29.58,SSW,202,0.0,0.0,99,0.00,,,0.00,VWS V12.07,2013-02-14 06:38:00,
2013-02-14 00:40:00,27.8,27.6,29.57,SSW,202,0.0,0.0,99,0.00,,,0.00,VWS V12.07,2013-02-14 06:40:00,
2013-02-14 00:42:00,27.9,27.7,29.58,SSW,202,0.0,0.0,99,0.00,,,0.00,VWS V12.07,2013-02-14 06:42:00,
2013-02-14 00:43:00,27.9,27.7,29.58,SSW,202,0.0,0.0,99,0.00,,,0.00,VWS V12.07,2013-02-14 06:43:00,
2013-02-14 00:44:00,27.9,27.7,29.58,SSW,202,0.0,0.0,99,0.00,,,0.00,VWS V12.07,2013-02-14 06:44:00,
2013-02-14 00:48:00,27.9,27.7,29.58,SSW,202,0.0,0.0,99,0.00,,,0.00,VWS V12.07,2013-02-14 06:48:00,
2013-02-14 00:49:00,27.9,27.7,29.58,SSW,202,0.0,0.0,99,0.00,,,0.00,VWS V12.07,2013-02-14 06:49:00,
2013-02-14 00:50:00,27.8,27.6,29.58,SSW,202,0.0,0.0,99,0.00,,,0.00,VWS V12.07,2013-02-14 06:50:00,
2013-02-14 00:53:00,28.1,27.9,29.58,SSW,202,0.0,0.0,99,0.00,,,0.00,VWS V12.07,2013-02-14 06:53:00,
2013-02-14 00:54:00,28.1,27.9,29.58,SSW,202,0.0,0.0,99,0.00,,,0.00,VWS V12.07,2013-02-14 06:54:00,
2013-02-14 00:58:00,28.1,27.6,29.58,SSW,202,0.0,0.0,98,0.00,,,0.00,VWS V12.07,2013-02-14 06:58:00,
2013-02-14 00:59:00,28.1,27.6,29.58,SSW,202,0.0,0.0,98,0.00,,,0.00,VWS V12.07,2013-02-14 06:59:00,
2013-02-14 01:00:00,27.9,27.7,29.58,SSW,202,0.0,0.0,99,0.00,,,0.00,VWS V12.07,2013-02-14 07:00:00,
2013-02-14 01:03:00,27.9,27.4,29.57,SSW,202,0.0,0.0,98,0.00,,,0.00,VWS V12.07,2013-02-14 07:03:00,
2013-02-14 01:04:00,27.9,27.4,29.57,SSW,202,0.0,1.0,98,0.00,,,0.00,VWS V12.07,2013-02-14 07:04:00,
2013-02-14 01:08:00,27.9,27.4,29.57,SSW,202,1.0,2.0,98,0.00,,,0.00,VWS V12.07,2013-02-14 07:08:00,
2013-02-14 01:10:00,27.9,27.4,29.57,SSW,202,0.0,2.0,98,0.00,,,0.00,VWS V12.07,2013-02-14 07:10:00,
2013-02-14 01:13:00,27.8,27.3,29.57,SSW,202,0.0,2.0,98,0.00,,,0.00,VWS V12.07,2013-02-14 07:13:00,
2013-02-14 01:15:00,27.8,27.3,29.57,SSW,202,0.0,2.0,98,0.00,,,0.00,VWS V12.07,2013-02-14 07:15:00,
2013-02-14 01:16:00,27.8,27.3,29.57,SSW,202,2.0,2.0,98,0.00,,,0.00,VWS V12.07,2013-02-14 07:16:00,
2013-02-14 01:18:00,27.8,27.3,29.57,North,351,2.0,3.0,98,0.00,,,0.00,VWS V12.07,2013-02-14 07:18:00,
2013-02-14 01:20:00,27.8,27.3,29.57,North,358,0.0,3.0,98,0.00,,,0.00,VWS V12.07,2013-02-14 07:20:00,
2013-02-14 01:21:00,27.8,27.3,29.57,North,358,0.0,3.0,98,0.00,,,0.00,VWS V12.07,2013-02-14 07:21:00,
2013-02-14 01:23:00,27.6,27.1,29.57,North,358,1.0,3.0,98,0.00,,,0.00,VWS V12.07,2013-02-14 07:23:00,
2013-02-14 01:25:00,27.6,27.1,29.57,North,358,0.0,3.0,98,0.00,,,0.00,VWS V12.07,2013-02-14 07:25:00,
2013-02-14 01:27:00,27.6,27.1,29.57,North,358,0.0,3.0,98,0.00,,,0.00,VWS V12.07,2013-02-14 07:27:00,
2013-02-14 01:29:00,27.6,27.1,29.57,NE,46,0.0,3.0,98,0.00,,,0.00,VWS V12.07,2013-02-14 07:29:00,
2013-02-14 01:30:00,27.6,27.1,29.57,NE,46,0.0,3.0,98,0.00,,,0.00,VWS V12.07,2013-02-14 07:30:00,
2013-02-14 01:32:00,27.6,27.1,29.57,North,349,1.0,3.0,98,0.00,,,0.00,VWS V12.07,2013-02-14 07:32:00,
2013-02-14 01:34:00,27.6,27.1,29.57,North,352,2.0,3.0,98,0.00,,,0.00,VWS V12.07,2013-02-14 07:34:00,
2013-02-14 01:35:00,27.6,27.1,29.57,North,352,1.0,3.0,98,0.00,,,0.00,VWS V12.07,2013-02-14 07:35:00,
2013-02-14 01:37:00,27.6,27.1,29.57,NNE,20,1.0,4.0,98,0.00,,,0.00,VWS V12.07,2013-02-14 07:37:00,
2013-02-14 01:39:00,27.5,27.0,29.57,North,5,0.0,4.0,98,0.00,,,0.00,VWS V12.07,2013-02-14 07:39:00,
2013-02-14 01:40:00,27.5,27.0,29.57,North,5,1.0,4.0,98,0.00,,,0.00,VWS V12.07,2013-02-14 07:40:00,
2013-02-14 01:41:00,27.5,27.0,29.57,North,5,0.0,4.0,98,0.00,,,0.00,VWS V12.07,2013-02-14 07:41:00,
2013-02-14 01:42:00,27.5,27.0,29.57,North,5,1.0,4.0,98,0.00,,,0.00,VWS V12.07,2013-02-14 07:42:00,
2013-02-14 01:44:00,27.5,27.0,29.57,North,5,0.0,4.0,98,0.00,,,0.00,VWS V12.07,2013-02-14 07:44:00,
2013-02-14 01:45:00,27.5,27.0,29.57,North,5,1.0,4.0,98,0.00,,,0.00,VWS V12.07,2013-02-14 07:45:00,
2013-02-14 01:46:00,27.5,27.0,29.57,North,5,1.0,4.0,98,0.00,,,0.00,VWS V12.07,2013-02-14 07:46:00,
2013-02-14 01:47:00,27.5,27.0,29.57,North,5,0.0,4.0,98,0.00,,,0.00,VWS V12.07,2013-02-14 07:47:00,
2013-02-14 01:50:00,27.5,27.0,29.57,North,5,0.0,2.0,98,0.00,,,0.00,VWS V12.07,2013-02-14 07:50:00,
2013-02-14 01:51:00,27.5,27.0,29.57,North,5,0.0,2.0,98,0.00,,,0.00,VWS V12.07,2013-02-14 07:51:00,
2013-02-14 01:52:00,27.5,27.0,29.57,North,5,0.0,2.0,98,0.00,,,0.00,VWS V12.07,2013-02-14 07:52:00,
2013-02-14 01:55:00,27.5,27.0,29.57,North,5,1.0,2.0,98,0.00,,,0.00,VWS V12.07,2013-02-14 07:55:00,
2013-02-14 01:56:00,27.3,26.8,29.57,North,5,0.0,2.0,98,0.00,,,0.00,VWS V12.07,2013-02-14 07:56:00,
2013-02-14 01:57:00,27.3,26.8,29.57,NE,38,2.0,2.0,98,0.00,,,0.00,VWS V12.07,2013-02-14 07:57:00,
2013-02-14 02:00:00,27.3,26.8,29.57,North,358,0.0,4.0,98,0.00,,,0.00,VWS V12.07,2013-02-14 08:00:00,
2013-02-14 02:01:00,27.3,26.8,29.57,North,358,0.0,4.0,98,0.00,,,0.00,VWS V12.07,2013-02-14 08:01:00,
2013-02-14 02:02:00,27.3,26.8,29.57,North,358,0.0,4.0,98,0.00,,,0.00,VWS V12.07,2013-02-14 08:02:00,
2013-02-14 02:03:00,27.3,26.8,29.57,North,358,0.0,4.0,98,0.00,,,0.00,VWS V12.07,2013-02-14 08:03:00,
2013-02-14 02:05:00,27.3,26.8,29.57,NNE,33,2.0,5.0,98,0.00,,,0.00,VWS V12.07,2013-02-14 08:05:00,
2013-02-14 02:06:00,27.2,26.7,29.57,NNE,15,0.0,5.0,98,0.00,,,0.00,VWS V12.07,2013-02-14 08:06:00,
2013-02-14 02:07:00,27.2,26.7,29.57,NNE,15,0.0,5.0,98,0.00,,,0.00,VWS V12.07,2013-02-14 08:07:00,
2013-02-14 02:08:00,27.2,26.7,29.57,NNE,15,0.0,5.0,98,0.00,,,0.00,VWS V12.07,2013-02-14 08:08:00,
2013-02-14 02:10:00,27.2,26.7,29.57,NNE,15,1.0,2.0,98,0.00,,,0.00,VWS V12.07,2013-02-14 08:10:00,
2013-02-14 02:12:00,27.2,26.7,29.57,NNE,15,1.0,2.0,98,0.00,,,0.00,VWS V12.07,2013-02-14 08:12:00,
2013-02-14 02:14:00,27.2,26.7,29.57,NNE,15,2.0,3.0,98,0.00,,,0.00,VWS V12.07,2013-02-14 08:14:00,
2013-02-14 02:15:00,27.0,26.5,29.57,NNE,15,0.0,3.0,98,0.00,,,0.00,VWS V12.07,2013-02-14 08:15:00,
2013-02-14 02:17:00,27.0,26.5,29.57,NNE,15,0.0,3.0,98,0.00,,,0.00,VWS V12.07,2013-02-14 08:17:00,
2013-02-14 02:19:00,27.0,26.5,29.57,NNE,15,0.0,1.0,98,0.00,,,0.00,VWS V12.07,2013-02-14 08:19:00,
2013-02-14 02:20:00,27.0,26.5,29.57,NNE,16,0.0,3.0,98,0.00,,,0.00,VWS V12.07,2013-02-14 08:20:00,
2013-02-14 02:22:00,27.0,26.5,29.57,North,9,0.0,3.0,98,0.00,,,0.00,VWS V12.07,2013-02-14 08:22:00,
2013-02-14 02:24:00,27.0,26.5,29.57,North,0,1.0,4.0,98,0.00,,,0.00,VWS V12.07,2013-02-14 08:24:00,
2013-02-14 02:25:00,26.9,26.4,29.57,North,0,0.0,4.0,98,0.00,,,0.00,VWS V12.07,2013-02-14 08:25:00,
2013-02-14 02:27:00,26.9,26.4,29.57,North,4,1.0,4.0,98,0.00,,,0.00,VWS V12.07,2013-02-14 08:27:00,
2013-02-14 02:28:00,26.9,26.4,29.57,North,4,1.0,4.0,98,0.00,,,0.00,VWS V12.07,2013-02-14 08:28:00,
2013-02-14 02:29:00,26.9,26.4,29.57,North,4,0.0,2.0,98,0.00,,,0.00,VWS V12.07,2013-02-14 08:29:00,
2013-02-14 02:30:00,26.9,26.4,29.57,North,4,1.0,2.0,98,0.00,,,0.00,VWS V12.07,2013-02-14 08:30:00,
2013-02-14 02:32:00,26.9,26.4,29.57,NE,49,0.0,3.0,98,0.00,,,0.00,VWS V12.07,2013-02-14 08:32:00,
2013-02-14 02:33:00,26.9,26.4,29.57,North,356,1.0,3.0,98,0.00,,,0.00,VWS V12.07,2013-02-14 08:33:00,
2013-02-14 02:35:00,26.7,26.2,29.57,NNE,15,2.0,3.0,98,0.00,,,0.00,VWS V12.07,2013-02-14 08:35:00,
2013-02-14 02:36:00,26.7,26.2,29.57,NNE,24,0.0,4.0,98,0.00,,,0.00,VWS V12.07,2013-02-14 08:36:00,
2013-02-14 02:38:00,26.7,26.2,29.57,NNE,18,2.0,4.0,98,0.01,,,0.01,VWS V12.07,2013-02-14 08:38:00,
2013-02-14 02:40:00,26.7,26.2,29.57,NNE,15,0.0,4.0,98,0.01,,,0.01,VWS V12.07,2013-02-14 08:40:00,
2013-02-14 02:41:00,26.7,26.2,29.57,NNE,18,1.0,4.0,98,0.01,,,0.01,VWS V12.07,2013-02-14 08:41:00,
2013-02-14 02:43:00,26.7,26.2,29.57,North,354,0.0,4.0,98,0.01,,,0.01,VWS V12.07,2013-02-14 08:43:00,
2013-02-14 02:44:00,26.7,26.2,29.57,North,354,0.0,4.0,98,0.01,,,0.01,VWS V12.07,2013-02-14 08:44:00,
2013-02-14 02:45:00,26.7,26.2,29.57,North,358,1.0,4.0,98,0.01,,,0.01,VWS V12.07,2013-02-14 08:45:00,
2013-02-14 02:46:00,26.7,26.2,29.57,NNW,335,1.0,4.0,98,0.01,,,0.01,VWS V12.07,2013-02-14 08:46:00,
2013-02-14 02:48:00,26.7,26.2,29.57,North,358,0.0,4.0,98,0.01,,,0.01,VWS V12.07,2013-02-14 08:48:00,
2013-02-14 02:49:00,26.6,26.1,29.57,North,358,0.0,3.0,98,0.01,,,0.01,VWS V12.07,2013-02-14 08:49:00,
2013-02-14 02:50:00,26.6,26.1,29.57,North,358,0.0,3.0,98,0.01,,,0.01,VWS V12.07,2013-02-14 08:50:00,
2013-02-14 02:51:00,26.6,26.1,29.57,North,358,1.0,3.0,98,0.01,,,0.01,VWS V12.07,2013-02-14 08:51:00,
2013-02-14 02:53:00,26.6,26.1,29.57,North,0,2.0,3.0,98,0.01,,,0.01,VWS V12.07,2013-02-14 08:53:00,
2013-02-14 02:54:00,26.6,26.1,29.57,North,0,0.0,3.0,98,0.01,,,0.01,VWS V12.07,2013-02-14 08:54:00,
2013-02-14 02:55:00,26.6,26.1,29.57,North,0,1.0,3.0,98,0.01,,,0.01,VWS V12.07,2013-02-14 08:55:00,
2013-02-14 02:56:00,26.6,26.1,29.57,North,0,0.0,3.0,98,0.01,,,0.01,VWS V12.07,2013-02-14 08:56:00,
2013-02-14 02:58:00,26.6,26.1,29.57,North,0,1.0,3.0,98,0.01,,,0.01,VWS V12.07,2013-02-14 08:58:00,
2013-02-14 02:59:00,26.6,26.1,29.57,NNE,29,0.0,3.0,98,0.01,,,0.01,VWS V12.07,2013-02-14 08:59:00,
2013-02-14 03:00:00,26.6,26.1,29.57,NNE,29,0.0,3.0,98,0.01,,,0.01,VWS V12.07,2013-02-14 09:00:00,
2013-02-14 03:02:00,26.4,25.9,29.57,NNE,29,0.0,3.0,98,0.01,,,0.01,VWS V12.07,2013-02-14 09:02:00,
2013-02-14 03:03:00,26.4,25.9,29.57,NNE,29,0.0,3.0,98,0.01,,,0.01,VWS V12.07,2013-02-14 09:03:00,
2013-02-14 03:04:00,26.4,25.9,29.57,NNE,29,0.0,3.0,98,0.01,,,0.01,VWS V12.07,2013-02-14 09:04:00,
2013-02-14 03:05:00,26.4,25.9,29.57,NNE,29,1.0,3.0,98,0.01,,,0.01,VWS V12.07,2013-02-14 09:05:00,
2013-02-14 03:07:00,26.4,25.9,29.57,NNE,29,1.0,3.0,98,0.01,,,0.01,VWS V12.07,2013-02-14 09:07:00,
2013-02-14 03:08:00,26.4,25.9,29.57,NNE,29,0.0,3.0,98,0.01,,,0.01,VWS V12.07,2013-02-14 09:08:00,
2013-02-14 03:09:00,26.4,25.9,29.57,North,357,1.0,2.0,98,0.01,,,0.01,VWS V12.07,2013-02-14 09:09:00,
2013-02-14 03:10:00,26.6,26.1,29.57,North,0,0.0,3.0,98,0.01,,,0.01,VWS V12.07,2013-02-14 09:10:00,
2013-02-14 03:11:00,26.4,25.9,29.57,North,357,1.0,2.0,98,0.01,,,0.01,VWS V12.07,2013-02-14 09:11:00,
2013-02-14 03:13:00,26.3,25.8,29.57,NE,52,0.0,2.0,98,0.01,,,0.01,VWS V12.07,2013-02-14 09:13:00,
2013-02-14 03:14:00,26.3,25.8,29.57,NE,52,1.0,2.0,98,0.01,,,0.01,VWS V12.07,2013-02-14 09:14:00,
2013-02-14 03:16:00,26.3,25.8,29.57,NE,52,0.0,2.0,98,0.01,,,0.01,VWS V12.07,2013-02-14 09:16:00,
2013-02-14 03:18:00,26.3,25.8,29.57,NE,52,0.0,1.0,98,0.01,,,0.01,VWS V12.07,2013-02-14 09:18:00,
2013-02-14 03:20:00,26.3,25.6,29.57,NE,52,0.0,1.0,97,0.01,,,0.01,VWS V12.07,2013-02-14 09:20:00,
2013-02-14 03:21:00,26.3,25.6,29.57,NNE,28,2.0,3.0,97,0.01,,,0.01,VWS V12.07,2013-02-14 09:21:00,
2013-02-14 03:23:00,26.1,25.4,29.57,North,354,1.0,3.0,97,0.01,,,0.01,VWS V12.07,2013-02-14 09:23:00,
2013-02-14 03:24:00,26.1,25.4,29.57,North,354,0.0,3.0,97,0.01,,,0.01,VWS V12.07,2013-02-14 09:24:00,
2013-02-14 03:26:00,26.1,25.4,29.57,North,354,0.0,3.0,97,0.01,,,0.01,VWS V12.07,2013-02-14 09:26:00,
2013-02-14 03:29:00,26.0,25.3,29.57,NNE,12,1.0,4.0,97,0.01,,,0.01,VWS V12.07,2013-02-14 09:29:00,
2013-02-14 03:30:00,26.3,25.8,29.57,NE,52,0.0,2.0,98,0.01,,,0.01,VWS V12.07,2013-02-14 09:30:00,
2013-02-14 03:40:00,26.1,25.4,29.57,North,354,0.0,3.0,97,0.01,,,0.01,VWS V12.07,2013-02-14 09:40:00,
2013-02-14 03:50:00,25.8,25.1,29.57,North,0,1.0,5.0,97,0.01,,,0.01,VWS V12.07,2013-02-14 09:50:00,
2013-02-14 04:00:00,25.4,24.4,29.58,NNW,338,1.0,5.0,96,0.01,,,0.01,VWS V12.07,2013-02-14 10:00:00,
2013-02-14 04:10:00,25.0,23.8,29.58,North,0,0.0,3.0,95,0.00,,,0.01,VWS V12.07,2013-02-14 10:10:00,
2013-02-14 04:20:00,24.5,23.0,29.58,North,0,1.0,5.0,94,0.00,,,0.01,VWS V12.07,2013-02-14 10:20:00,
2013-02-14 04:30:00,24.4,22.7,29.59,North,0,1.0,3.0,93,0.00,,,0.01,VWS V12.07,2013-02-14 10:30:00,
2013-02-14 04:40:00,24.1,22.4,29.59,North,0,1.0,3.0,93,0.00,,,0.01,VWS V12.07,2013-02-14 10:40:00,
2013-02-14 04:50:00,24.1,22.4,29.59,NNE,22,1.0,5.0,93,0.00,,,0.01,VWS V12.07,2013-02-14 10:50:00,
2013-02-14 05:00:00,23.9,22.2,29.59,North,0,1.0,6.0,93,0.00,,,0.01,VWS V12.07,2013-02-14 11:00:00,
2013-02-14 05:10:00,23.8,22.1,29.59,North,0,0.0,3.0,93,0.00,,,0.01,VWS V12.07,2013-02-14 11:10:00,
2013-02-14 05:20:00,23.8,0.0,29.60,North,0,0.0,0.0,0,0.00,,,0.01,VWS V12.07,2013-02-14 11:20:00,
2013-02-14 05:30:00,23.8,0.0,29.58,North,0,0.0,0.0,0,0.00,,,0.01,VWS V12.07,2013-02-14 11:30:00,
2013-02-14 05:40:00,23.8,0.0,29.58,North,0,0.0,0.0,0,0.00,,,0.01,VWS V12.07,2013-02-14 11:40:00,
2013-02-14 05:50:00,23.8,0.0,29.59,North,0,0.0,0.0,0,0.00,,,0.01,VWS V12.07,2013-02-14 11:50:00,
2013-02-14 06:00:00,23.8,0.0,29.59,North,0,0.0,0.0,0,0.00,,,0.01,VWS V12.07,2013-02-14 12:00:00,
2013-02-14 06:10:00,23.8,0.0,29.59,North,0,0.0,0.0,0,0.00,,,0.01,VWS V12.07,2013-02-14 12:10:00,
2013-02-14 06:20:00,23.8,0.0,29.60,North,0,0.0,0.0,0,0.00,,,0.01,VWS V12.07,2013-02-14 12:20:00,
2013-02-14 06:30:00,23.8,0.0,29.60,North,0,0.0,0.0,0,0.00,,,0.01,VWS V12.07,2013-02-14 12:30:00,
2013-02-14 06:40:00,23.8,0.0,29.60,North,0,0.0,0.0,0,0.00,,,0.01,VWS V12.07,2013-02-14 12:40:00,
2013-02-14 06:50:00,23.8,0.0,29.61,North,0,0.0,0.0,0,0.00,,,0.01,VWS V12.07,2013-02-14 12:50:00,
2013-02-14 07:00:00,23.8,0.0,29.61,North,0,0.0,0.0,0,0.00,,,0.01,VWS V12.07,2013-02-14 13:00:00,
2013-02-14 07:10:00,23.8,0.0,29.61,North,0,0.0,0.0,0,0.00,,,0.01,VWS V12.07,2013-02-14 13:10:00,
2013-02-14 07:20:00,23.8,0.0,29.61,North,0,0.0,0.0,0,0.00,,,0.01,VWS V12.07,2013-02-14 13:20:00,
2013-02-14 07:30:00,23.8,0.0,29.62,North,0,0.0,0.0,0,0.00,,,0.01,VWS V12.07,2013-02-14 13:30:00,
2013-02-14 07:40:00,23.8,0.0,29.62,North,0,0.0,0.0,0,0.00,,,0.01,VWS V12.07,2013-02-14 13:40:00,
2013-02-14 07:50:00,23.8,22.3,29.63,North,0,0.0,0.0,94,0.00,,,0.01,VWS V12.07,2013-02-14 13:50:00,
2013-02-14 08:00:00,23.9,22.4,29.65,NE,45,0.0,2.0,94,0.00,,,0.01,VWS V12.07,2013-02-14 14:00:00,
2013-02-14 08:10:00,24.1,22.6,29.65,NE,45,0.0,1.0,94,0.00,,,0.01,VWS V12.07,2013-02-14 14:10:00,
2013-02-14 08:20:00,24.4,22.9,29.65,NE,45,0.0,1.0,94,0.00,,,0.01,VWS V12.07,2013-02-14 14:20:00,
2013-02-14 08:35:00,25.8,25.1,29.57,North,0,1.0,5.0,97,0.01,,,0.01,VWS V12.07,2013-02-14 14:35:00,
2013-02-14 08:36:00,25.0,23.8,29.58,North,0,0.0,5.0,95,0.00,,,0.01,VWS V12.07,2013-02-14 14:36:00,
2013-02-14 08:41:00,24.8,23.1,29.66,ENE,60,0.0,2.0,93,0.00,,,0.01,VWS V12.07,2013-02-14 14:41:00,
2013-02-14 08:42:00,24.8,23.1,29.66,ENE,59,0.0,2.0,93,0.00,,,0.01,VWS V12.07,2013-02-14 14:42:00,
2013-02-14 08:46:00,24.8,23.1,29.66,ENE,60,1.0,2.0,93,0.00,,,0.01,VWS V12.07,2013-02-14 14:46:00,
2013-02-14 08:47:00,24.8,23.1,29.66,ENE,60,0.0,2.0,93,0.00,,,0.01,VWS V12.07,2013-02-14 14:47:00,
2013-02-14 08:52:00,25.0,23.3,29.66,ENE,60,0.0,2.0,93,0.00,,,0.01,VWS V12.07,2013-02-14 14:52:00,
2013-02-14 08:57:00,25.0,23.3,29.66,NE,40,0.0,3.0,93,0.00,,,0.01,VWS V12.07,2013-02-14 14:57:00,
2013-02-14 09:02:00,25.3,23.6,29.66,NE,40,0.0,1.0,93,0.00,,,0.01,VWS V12.07,2013-02-14 15:02:00,
2013-02-14 09:03:00,25.3,23.3,29.66,NE,40,0.0,1.0,92,0.00,,,0.01,VWS V12.07,2013-02-14 15:03:00,
2013-02-14 09:07:00,25.3,23.3,29.66,NE,40,0.0,1.0,92,0.00,,,0.01,VWS V12.07,2013-02-14 15:07:00,
2013-02-14 09:08:00,25.3,23.3,29.66,NE,40,0.0,1.0,92,0.00,,,0.01,VWS V12.07,2013-02-14 15:08:00,
2013-02-14 09:12:00,25.3,23.3,29.66,NE,39,0.0,2.0,92,0.00,,,0.01,VWS V12.07,2013-02-14 15:12:00,
2013-02-14 09:13:00,25.3,23.3,29.66,NE,39,0.0,2.0,92,0.00,,,0.01,VWS V12.07,2013-02-14 15:13:00,
2013-02-14 09:17:00,25.4,23.1,29.66,NE,39,0.0,2.0,91,0.00,,,0.01,VWS V12.07,2013-02-14 15:17:00,
2013-02-14 09:18:00,25.4,23.4,29.66,NE,39,1.0,2.0,92,0.00,,,0.01,VWS V12.07,2013-02-14 15:18:00,
2013-02-14 09:22:00,25.4,23.1,29.66,NE,39,0.0,2.0,91,0.00,,,0.01,VWS V12.07,2013-02-14 15:22:00,
2013-02-14 09:23:00,25.4,23.1,29.66,NE,39,0.0,2.0,91,0.00,,,0.01,VWS V12.07,2013-02-14 15:23:00,
2013-02-14 09:28:00,25.4,23.1,29.66,NE,39,0.0,1.0,91,0.00,,,0.01,VWS V12.07,2013-02-14 15:28:00,
2013-02-14 09:29:00,25.4,23.1,29.66,NE,39,0.0,1.0,91,0.00,,,0.01,VWS V12.07,2013-02-14 15:29:00,
2013-02-14 09:33:00,25.6,23.3,29.67,NE,39,0.0,1.0,91,0.00,,,0.01,VWS V12.07,2013-02-14 15:33:00,
2013-02-14 09:34:00,25.6,23.3,29.67,NE,39,0.0,1.0,91,0.00,,,0.01,VWS V12.07,2013-02-14 15:34:00,
2013-02-14 09:39:00,25.6,23.1,29.67,West,281,1.0,2.0,90,0.00,,,0.01,VWS V12.07,2013-02-14 15:39:00,
2013-02-14 09:44:00,25.6,23.1,29.67,NNE,15,2.0,4.0,90,0.00,,,0.01,VWS V12.07,2013-02-14 15:44:00,
2013-02-14 09:49:00,25.6,23.1,29.67,North,354,0.0,2.0,90,0.00,,OVC029,0.01,VWS V12.07,2013-02-14 15:49:00,
2013-02-14 09:54:00,25.7,23.2,29.67,North,354,0.0,2.0,90,0.00,,OVC029,0.01,VWS V12.07,2013-02-14 15:54:00,
2013-02-14 09:55:00,25.7,23.2,29.67,North,354,0.0,2.0,90,0.00,,OVC029,0.01,VWS V12.07,2013-02-14 15:55:00,
2013-02-14 09:59:00,26.0,23.5,29.67,North,354,0.0,1.0,90,0.00,,OVC029,0.01,VWS V12.07,2013-02-14 15:59:00,
2013-02-14 10:00:00,26.0,23.5,29.67,NNW,334,1.0,2.0,90,0.00,,OVC029,0.01,VWS V12.07,2013-02-14 16:00:00,
2013-02-14 10:04:00,26.0,23.5,29.67,NNW,334,0.0,2.0,90,0.00,,OVC029,0.01,VWS V12.07,2013-02-14 16:04:00,
2013-02-14 10:05:00,26.0,23.5,29.67,NNW,334,0.0,2.0,90,0.00,,OVC029,0.01,VWS V12.07,2013-02-14 16:05:00,
2013-02-14 10:10:00,26.0,23.5,29.67,North,0,0.0,2.0,90,0.00,,OVC029,0.01,VWS V12.07,2013-02-14 16:10:00,
2013-02-14 10:11:00,26.0,23.5,29.67,North,0,0.0,2.0,90,0.00,,OVC029,0.01,VWS V12.07,2013-02-14 16:11:00,
2013-02-14 10:15:00,26.1,23.6,29.67,North,0,0.0,2.0,90,0.00,,OVC029,0.01,VWS V12.07,2013-02-14 16:15:00,
2013-02-14 10:16:00,26.1,23.6,29.67,North,0,1.0,2.0,90,0.00,,OVC029,0.01,VWS V12.07,2013-02-14 16:16:00,
2013-02-14 10:20:00,26.3,23.8,29.67,North,0,0.0,2.0,90,0.00,,OVC029,0.01,VWS V12.07,2013-02-14 16:20:00,
2013-02-14 10:21:00,26.3,23.8,29.67,North,0,0.0,2.0,90,0.00,,OVC029,0.01,VWS V12.07,2013-02-14 16:21:00,
2013-02-14 10:25:00,26.3,23.8,29.67,North,0,0.0,4.0,90,0.00,,OVC029,0.01,VWS V12.07,2013-02-14 16:25:00,
2013-02-14 10:26:00,26.3,23.8,29.67,North,0,0.0,4.0,90,0.00,,OVC029,0.01,VWS V12.07,2013-02-14 16:26:00,
2013-02-14 10:27:00,26.3,23.8,29.67,North,0,0.0,4.0,90,0.00,,OVC029,0.01,VWS V12.07,2013-02-14 16:27:00,
2013-02-14 10:30:00,26.4,23.9,29.67,North,0,0.0,2.0,90,0.00,,OVC029,0.01,VWS V12.07,2013-02-14 16:30:00,
2013-02-14 10:31:00,26.4,23.9,29.67,North,0,0.0,2.0,90,0.00,,OVC029,0.01,VWS V12.07,2013-02-14 16:31:00,
2013-02-14 10:32:00,26.4,23.9,29.67,North,0,0.0,2.0,90,0.00,,OVC029,0.01,VWS V12.07,2013-02-14 16:32:00,
2013-02-14 10:35:00,26.6,24.1,29.67,North,0,0.0,2.0,90,0.00,,OVC029,0.01,VWS V12.07,2013-02-14 16:35:00,
2013-02-14 10:36:00,26.6,24.3,29.67,North,0,1.0,2.0,91,0.00,,OVC029,0.01,VWS V12.07,2013-02-14 16:36:00,
2013-02-14 10:37:00,26.7,24.2,29.67,North,0,0.0,2.0,90,0.00,,OVC029,0.01,VWS V12.07,2013-02-14 16:37:00,
2013-02-14 10:40:00,26.9,24.4,29.67,North,0,1.0,2.0,90,0.00,,OVC031,0.01,VWS V12.07,2013-02-14 16:40:00,
2013-02-14 10:41:00,26.9,24.4,29.67,North,356,2.0,2.0,90,0.00,,OVC031,0.01,VWS V12.07,2013-02-14 16:41:00,
2013-02-14 10:42:00,26.9,24.1,29.67,North,356,1.0,2.0,89,0.00,,OVC031,0.01,VWS V12.07,2013-02-14 16:42:00,
2013-02-14 10:46:00,27.0,24.2,29.68,NE,43,0.0,3.0,89,0.00,,OVC031,0.01,VWS V12.07,2013-02-14 16:46:00,
2013-02-14 10:47:00,27.0,24.2,29.68,NE,43,1.0,3.0,89,0.00,,OVC031,0.01,VWS V12.07,2013-02-14 16:47:00,
2013-02-14 10:48:00,27.0,24.2,29.68,NE,43,1.0,2.0,89,0.00,,OVC031,0.01,VWS V12.07,2013-02-14 16:48:00,
2013-02-14 10:51:00,27.0,23.9,29.68,WSW,254,1.0,3.0,88,0.00,,,0.01,VWS V12.07,2013-02-14 16:51:00,
2013-02-14 10:52:00,27.0,23.9,29.68,WSW,254,0.0,3.0,88,0.00,,,0.01,VWS V12.07,2013-02-14 16:52:00,
2013-02-14 10:53:00,27.0,23.9,29.68,WSW,254,0.0,3.0,88,0.00,,,0.01,VWS V12.07,2013-02-14 16:53:00,
2013-02-14 10:56:00,27.0,23.6,29.68,ENE,60,1.0,3.0,87,0.00,,,0.01,VWS V12.07,2013-02-14 16:56:00,
2013-02-14 10:57:00,27.0,23.6,29.68,ENE,60,1.0,1.0,87,0.00,,,0.01,VWS V12.07,2013-02-14 16:57:00,
2013-02-14 10:58:00,27.0,23.6,29.68,ENE,60,0.0,1.0,87,0.00,,,0.01,VWS V12.07,2013-02-14 16:58:00,
2013-02-14 11:01:00,27.2,23.9,29.68,NNE,28,0.0,4.0,87,0.00,,,0.01,VWS V12.07,2013-02-14 17:01:00,
2013-02-14 11:03:00,27.2,23.9,29.68,NE,41,0.0,4.0,87,0.00,,,0.01,VWS V12.07,2013-02-14 17:03:00,
2013-02-14 11:06:00,27.2,23.6,29.68,NNE,25,2.0,5.0,86,0.00,,,0.01,VWS V12.07,2013-02-14 17:06:00,
2013-02-14 11:08:00,27.0,23.4,29.68,NNW,339,2.0,5.0,86,0.00,,,0.01,VWS V12.07,2013-02-14 17:08:00,
2013-02-14 11:09:00,27.0,23.4,29.68,NNW,339,0.0,3.0,86,0.00,,,0.01,VWS V12.07,2013-02-14 17:09:00,
2013-02-14 11:11:00,27.0,23.4,29.68,North,1,1.0,3.0,86,0.00,,,0.01,VWS V12.07,2013-02-14 17:11:00,
2013-02-14 11:13:00,27.0,23.4,29.68,NNE,21,2.0,5.0,86,0.00,,,0.01,VWS V12.07,2013-02-14 17:13:00,
2013-02-14 11:15:00,27.2,23.6,29.69,NNE,21,0.0,5.0,86,0.00,,,0.01,VWS V12.07,2013-02-14 17:15:00,
2013-02-14 11:16:00,27.2,23.6,29.69,NNE,23,1.0,0.0,86,0.00,,,0.01,VWS V12.07,2013-02-14 17:16:00,
2013-02-14 11:18:00,27.2,23.6,29.69,North,1,0.0,5.0,86,0.00,,,0.01,VWS V12.07,2013-02-14 17:18:00,
2013-02-14 11:19:00,27.2,23.6,29.69,North,1,0.0,5.0,86,0.00,,,0.01,VWS V12.07,2013-02-14 17:19:00,
2013-02-14 11:20:00,27.3,23.7,29.69,North,1,0.0,5.0,86,0.00,,,0.01,VWS V12.07,2013-02-14 17:20:00,
2013-02-14 11:22:00,27.3,23.7,29.69,NNE,18,1.0,5.0,86,0.00,,,0.01,VWS V12.07,2013-02-14 17:22:00,
2013-02-14 11:23:00,27.3,23.7,29.69,NNW,327,3.0,5.0,86,0.00,,,0.01,VWS V12.07,2013-02-14 17:23:00,
2013-02-14 11:24:00,27.3,23.7,29.69,NNE,22,5.0,5.0,86,0.00,,,0.01,VWS V12.07,2013-02-14 17:24:00,
2013-02-14 11:26:00,27.3,23.7,29.69,NE,50,0.0,6.0,86,0.00,,,0.01,VWS V12.07,2013-02-14 17:26:00,
2013-02-14 11:27:00,27.3,23.7,29.69,NNE,25,4.0,4.0,86,0.00,,,0.01,VWS V12.07,2013-02-14 17:27:00,
2013-02-14 11:29:00,27.3,23.7,29.69,North,1,1.0,4.0,86,0.00,,,0.01,VWS V12.07,2013-02-14 17:29:00,
2013-02-14 11:31:00,27.2,23.6,29.69,North,1,0.0,4.0,86,0.00,,,0.01,VWS V12.07,2013-02-14 17:31:00,
2013-02-14 11:32:00,27.2,23.6,29.69,NE,34,3.0,6.0,86,0.00,,,0.01,VWS V12.07,2013-02-14 17:32:00,
2013-02-14 11:34:00,27.2,23.6,29.69,North,2,1.0,6.0,86,0.00,,,0.01,VWS V12.07,2013-02-14 17:34:00,
2013-02-14 11:36:00,27.3,23.7,29.69,NNW,348,1.0,6.0,86,0.00,,,0.01,VWS V12.07,2013-02-14 17:36:00,
2013-02-14 11:37:00,27.2,23.6,29.69,NW,316,1.0,4.0,86,0.00,,,0.01,VWS V12.07,2013-02-14 17:37:00,
2013-02-14 11:39:00,27.2,23.3,29.69,NW,325,1.0,4.0,85,0.00,,,0.01,VWS V12.07,2013-02-14 17:39:00,
2013-02-14 11:42:00,27.2,23.3,29.69,North,1,1.0,4.0,85,0.00,,,0.01,VWS V12.07,2013-02-14 17:42:00,
2013-02-14 11:43:00,27.2,23.3,29.69,NNW,347,2.0,4.0,85,0.00,,,0.01,VWS V12.07,2013-02-14 17:43:00,
2013-02-14 11:44:00,27.2,23.3,29.69,NNW,347,1.0,4.0,85,0.00,,,0.01,VWS V12.07,2013-02-14 17:44:00,
2013-02-14 11:47:00,27.2,23.3,29.69,NW,315,3.0,4.0,85,0.00,,,0.01,VWS V12.07,2013-02-14 17:47:00,
2013-02-14 11:48:00,27.0,22.8,29.69,NNW,345,1.0,4.0,84,0.00,,,0.01,VWS V12.07,2013-02-14 17:48:00,
2013-02-14 11:49:00,27.0,22.8,29.69,NNW,345,1.0,4.0,84,0.00,,,0.01,VWS V12.07,2013-02-14 17:49:00,
2013-02-14 11:50:00,27.0,22.8,29.69,NNW,334,2.0,4.0,84,0.00,,,0.01,VWS V12.07,2013-02-14 17:50:00,
2013-02-14 11:52:00,27.0,22.8,29.69,North,349,0.0,4.0,84,0.00,,,0.01,VWS V12.07,2013-02-14 17:52:00,
2013-02-14 11:54:00,27.0,22.8,29.69,North,358,2.0,4.0,84,0.00,,,0.01,VWS V12.07,2013-02-14 17:54:00,
2013-02-14 11:55:00,27.0,22.8,29.69,East,82,3.0,0.0,84,0.00,,,0.01,VWS V12.07,2013-02-14 17:55:00,
2013-02-14 11:57:00,27.0,22.8,29.69,North,356,2.0,4.0,84,0.00,,,0.01,VWS V12.07,2013-02-14 17:57:00,
2013-02-14 11:59:00,27.0,22.8,29.69,North,358,3.0,4.0,84,0.00,,,0.01,VWS V12.07,2013-02-14 17:59:00,
2013-02-14 12:00:00,27.0,22.8,29.70,NNW,346,4.0,9.0,84,0.00,,,0.01,VWS V12.07,2013-02-14 18:00:00,
2013-02-14 12:02:00,27.0,22.5,29.70,NW,324,3.0,9.0,83,0.00,,,0.01,VWS V12.07,2013-02-14 18:02:00,
2013-02-14 12:05:00,26.7,22.2,29.70,NE,50,1.0,9.0,83,0.00,,,0.01,VWS V12.07,2013-02-14 18:05:00,
2013-02-14 12:06:00,26.7,22.2,29.70,North,349,4.0,10.0,83,0.00,,,0.01,VWS V12.07,2013-02-14 18:06:00,
2013-02-14 12:07:00,26.6,22.1,29.70,NNE,14,2.0,10.0,83,0.00,,,0.01,VWS V12.07,2013-02-14 18:07:00,
2013-02-14 12:10:00,26.6,21.9,29.70,North,0,4.0,5.0,82,0.00,,,0.01,VWS V12.07,2013-02-14 18:10:00,
2013-02-14 12:11:00,26.4,21.7,29.70,North,358,1.0,5.0,82,0.00,,,0.01,VWS V12.07,2013-02-14 18:11:00,
2013-02-14 12:12:00,26.6,21.9,29.70,NNE,20,1.0,5.0,82,0.00,,,0.01,VWS V12.07,2013-02-14 18:12:00,
2013-02-14 12:15:00,26.4,21.4,29.70,NNW,332,3.0,8.0,81,0.00,,,0.01,VWS V12.07,2013-02-14 18:15:00,
2013-02-14 12:16:00,26.4,21.4,29.70,North,1,1.0,8.0,81,0.00,,,0.01,VWS V12.07,2013-02-14 18:16:00,
2013-02-14 12:18:00,26.4,21.4,29.70,NNE,15,2.0,4.0,81,0.00,,,0.01,VWS V12.07,2013-02-14 18:18:00,
2013-02-14 12:20:00,26.6,21.6,29.70,North,0,3.0,4.0,81,0.00,,,0.01,VWS V12.07,2013-02-14 18:20:00,
2013-02-14 12:21:00,26.6,21.6,29.70,NNW,333,5.0,5.0,81,0.00,,,0.01,VWS V12.07,2013-02-14 18:21:00,
2013-02-14 12:23:00,26.6,21.9,29.70,NE,47,1.0,7.0,82,0.00,,,0.01,VWS V12.07,2013-02-14 18:23:00,
2013-02-14 12:26:00,26.6,21.9,29.70,North,355,0.0,7.0,82,0.00,,,0.01,VWS V12.07,2013-02-14 18:26:00,
2013-02-14 12:29:00,26.7,22.2,29.70,North,354,2.0,3.0,83,0.00,,,0.01,VWS V12.07,2013-02-14 18:29:00,
2013-02-14 12:31:00,26.7,22.0,29.70,NNE,12,2.0,6.0,82,0.00,,,0.01,VWS V12.07,2013-02-14 18:31:00,
2013-02-14 12:34:00,26.6,21.6,29.70,North,7,5.0,6.0,81,0.00,,,0.01,VWS V12.07,2013-02-14 18:34:00,
2013-02-14 12:36:00,26.3,21.3,29.70,West,275,1.0,6.0,81,0.00,,,0.01,VWS V12.07,2013-02-14 18:36:00,
2013-02-14 12:37:00,26.3,21.3,29.70,NE,39,4.0,6.0,81,0.00,,,0.01,VWS V12.07,2013-02-14 18:37:00,
2013-02-14 12:40:00,26.0,20.7,29.70,North,11,2.0,6.0,80,0.00,,,0.01,VWS V12.07,2013-02-14 18:40:00,
2013-02-14 12:42:00,26.0,20.7,29.70,North,358,2.0,7.0,80,0.00,,,0.01,VWS V12.07,2013-02-14 18:42:00,
2013-02-14 12:45:00,25.8,20.5,29.71,NNW,334,3.0,7.0,80,0.00,,,0.01,VWS V12.07,2013-02-14 18:45:00,
2013-02-14 12:47:00,25.8,20.5,29.71,WNW,291,2.0,7.0,80,0.00,,,0.01,VWS V12.07,2013-02-14 18:47:00,
2013-02-14 12:51:00,26.0,21.0,29.71,ENE,60,1.0,5.0,81,0.00,,,0.01,VWS V12.07,2013-02-14 18:51:00,
2013-02-14 12:52:00,26.0,21.0,29.71,North,354,0.0,5.0,81,0.00,,,0.01,VWS V12.07,2013-02-14 18:52:00,
2013-02-14 12:56:00,26.3,21.6,29.71,NNW,345,0.0,6.0,82,0.00,,,0.01,VWS V12.07,2013-02-14 18:56:00,
2013-02-14 12:57:00,26.3,21.3,29.71,NNW,346,0.0,6.0,81,0.00,,,0.01,VWS V12.07,2013-02-14 18:57:00,
2013-02-14 12:58:00,26.3,21.3,29.71,NNW,346,1.0,6.0,81,0.00,,,0.01,VWS V12.07,2013-02-14 18:58:00,
2013-02-14 13:01:00,26.3,20.7,29.71,NNE,32,1.0,6.0,79,0.00,,,0.01,VWS V12.07,2013-02-14 19:01:00,
2013-02-14 13:02:00,26.3,20.7,29.71,NNW,339,2.0,6.0,79,0.00,,,0.01,VWS V12.07,2013-02-14 19:02:00,
2013-02-14 13:03:00,26.1,20.5,29.71,NNW,339,2.0,6.0,79,0.00,,,0.01,VWS V12.07,2013-02-14 19:03:00,
2013-02-14 13:07:00,26.0,20.4,29.71,NNE,28,0.0,2.0,79,0.00,,,0.01,VWS V12.07,2013-02-14 19:07:00,
2013-02-14 13:08:00,26.1,20.5,29.71,NNE,13,2.0,3.0,79,0.00,,,0.01,VWS V12.07,2013-02-14 19:08:00,
2013-02-14 13:12:00,26.0,20.1,29.71,NNE,24,0.0,10.0,78,0.00,,,0.01,VWS V12.07,2013-02-14 19:12:00,
2013-02-14 13:13:00,26.0,20.1,29.71,North,5,2.0,10.0,78,0.00,,,0.01,VWS V12.07,2013-02-14 19:13:00,
2013-02-14 13:17:00,26.1,20.2,29.72,North,1,0.0,10.0,78,0.00,,,0.01,VWS V12.07,2013-02-14 19:17:00,
2013-02-14 13:18:00,26.1,20.2,29.72,North,1,1.0,10.0,78,0.00,,,0.01,VWS V12.07,2013-02-14 19:18:00,
2013-02-14 13:22:00,26.3,20.1,29.72,NW,314,4.0,10.0,77,0.00,,,0.01,VWS V12.07,2013-02-14 19:22:00,
2013-02-14 13:23:00,26.3,19.8,29.72,NNW,347,3.0,6.0,76,0.00,,,0.01,VWS V12.07,2013-02-14 19:23:00,
2013-02-14 13:27:00,26.0,19.5,29.72,NE,53,3.0,10.0,76,0.00,,,0.01,VWS V12.07,2013-02-14 19:27:00,
2013-02-14 13:28:00,26.0,19.5,29.72,NE,34,2.0,10.0,76,0.00,,,0.01,VWS V12.07,2013-02-14 19:28:00,
2013-02-14 13:29:00,25.8,19.3,29.72,NNW,332,2.0,10.0,76,0.00,,,0.01,VWS V12.07,2013-02-14 19:29:00,
2013-02-14 13:32:00,25.6,19.4,29.73,North,356,3.0,10.0,77,0.00,,,0.01,VWS V12.07,2013-02-14 19:32:00,
2013-02-14 13:33:00,25.6,19.4,29.73,North,356,0.0,10.0,77,0.00,,,0.01,VWS V12.07,2013-02-14 19:33:00,
2013-02-14 13:34:00,25.6,19.4,29.73,NNW,345,4.0,10.0,77,0.00,,,0.01,VWS V12.07,2013-02-14 19:34:00,
2013-02-14 13:37:00,25.3,18.8,29.73,NNW,339,2.0,10.0,76,0.00,,,0.01,VWS V12.07,2013-02-14 19:37:00,
2013-02-14 13:38:00,25.3,19.1,29.73,NE,43,4.0,11.0,77,0.00,,,0.01,VWS V12.07,2013-02-14 19:38:00,
2013-02-14 13:39:00,25.3,19.1,29.73,NNW,336,2.0,11.0,77,0.00,,,0.01,VWS V12.07,2013-02-14 19:39:00,
2013-02-14 13:42:00,25.1,18.9,29.73,NNW,340,0.0,11.0,77,0.00,,,0.01,VWS V12.07,2013-02-14 19:42:00,
2013-02-14 13:43:00,25.1,18.9,29.73,North,0,3.0,11.0,77,0.00,,,0.01,VWS V12.07,2013-02-14 19:43:00,
2013-02-14 13:44:00,25.0,19.1,29.73,North,9,0.0,11.0,78,0.00,,,0.01,VWS V12.07,2013-02-14 19:44:00,
2013-02-14 13:45:00,25.0,19.1,29.74,North,9,0.0,11.0,78,0.00,,,0.01,VWS V12.07,2013-02-14 19:45:00,
2013-02-14 13:47:00,25.1,19.2,29.74,NNE,15,0.0,11.0,78,0.00,,,0.01,VWS V12.07,2013-02-14 19:47:00,
2013-02-14 13:49:00,25.1,19.2,29.74,NNW,330,0.0,3.0,78,0.00,,OVC019,0.01,VWS V12.07,2013-02-14 19:49:00,
2013-02-14 13:50:00,25.1,19.2,29.74,West,277,0.0,3.0,78,0.00,,OVC019,0.01,VWS V12.07,2013-02-14 19:50:00,
2013-02-14 13:53:00,25.1,18.9,29.74,North,0,1.0,4.0,77,0.00,,OVC019,0.01,VWS V12.07,2013-02-14 19:53:00,
2013-02-14 13:54:00,25.1,18.9,29.74,North,0,1.0,4.0,77,0.00,,OVC019,0.01,VWS V12.07,2013-02-14 19:54:00,
2013-02-14 13:55:00,25.1,18.6,29.74,North,358,2.0,4.0,76,0.00,,OVC019,0.01,VWS V12.07,2013-02-14 19:55:00,
2013-02-14 13:58:00,25.0,18.8,29.74,NE,35,0.0,9.0,77,0.00,,OVC019,0.01,VWS V12.07,2013-02-14 19:58:00,
2013-02-14 13:59:00,25.0,18.8,29.74,NNW,342,3.0,9.0,77,0.00,,OVC019,0.01,VWS V12.07,2013-02-14 19:59:00,
2013-02-14 14:00:00,25.0,18.5,29.74,NNW,342,0.0,9.0,76,0.00,,OVC019,0.01,VWS V12.07,2013-02-14 20:00:00,
2013-02-14 14:03:00,25.1,18.9,29.74,North,0,1.0,9.0,77,0.00,,OVC019,0.01,VWS V12.07,2013-02-14 20:03:00,
2013-02-14 14:05:00,25.1,18.9,29.74,North,355,0.0,9.0,77,0.00,,OVC019,0.01,VWS V12.07,2013-02-14 20:05:00,
2013-02-14 14:09:00,25.1,18.6,29.74,NNW,345,2.0,5.0,76,0.00,,OVC019,0.01,VWS V12.07,2013-02-14 20:09:00,
2013-02-14 14:10:00,25.1,18.6,29.74,NNE,31,1.0,7.0,76,0.00,,OVC019,0.01,VWS V12.07,2013-02-14 20:10:00,
2013-02-14 14:11:00,25.1,18.6,29.74,North,358,0.0,7.0,76,0.00,,OVC019,0.01,VWS V12.07,2013-02-14 20:11:00,
2013-02-14 14:15:00,25.1,18.6,29.75,NNW,337,0.0,7.0,76,0.00,,OVC019,0.01,VWS V12.07,2013-02-14 20:15:00,
2013-02-14 14:16:00,25.1,18.6,29.75,NNW,337,0.0,7.0,76,0.00,,OVC019,0.01,VWS V12.07,2013-02-14 20:16:00,
2013-02-14 14:20:00,25.1,18.9,29.75,North,358,0.0,4.0,77,0.00,,OVC019,0.01,VWS V12.07,2013-02-14 20:20:00,
2013-02-14 14:21:00,25.1,18.9,29.75,North,0,1.0,4.0,77,0.00,,OVC019,0.01,VWS V12.07,2013-02-14 20:21:00,
2013-02-14 14:25:00,25.0,19.1,29.75,North,0,0.0,5.0,78,0.00,,OVC019,0.01,VWS V12.07,2013-02-14 20:25:00,
2013-02-14 14:26:00,24.8,18.9,29.75,North,0,0.0,5.0,78,0.00,,OVC019,0.01,VWS V12.07,2013-02-14 20:26:00,
2013-02-14 14:27:00,24.8,18.9,29.75,North,354,1.0,5.0,78,0.00,,OVC019,0.01,VWS V12.07,2013-02-14 20:27:00,
2013-02-14 14:30:00,24.5,18.3,29.76,NNW,333,1.0,4.0,77,0.00,,OVC019,0.01,VWS V12.07,2013-02-14 20:30:00,
2013-02-14 14:31:00,24.5,18.3,29.76,NNW,333,0.0,4.0,77,0.00,,OVC019,0.01,VWS V12.07,2013-02-14 20:31:00,
2013-02-14 14:32:00,24.5,18.6,29.76,NNW,336,2.0,6.0,78,0.00,,OVC019,0.01,VWS V12.07,2013-02-14 20:32:00,
2013-02-14 14:36:00,24.1,18.0,29.76,WNW,296,2.0,6.0,77,0.00,,OVC044,0.01,VWS V12.07,2013-02-14 20:36:00,
2013-02-14 14:37:00,24.1,18.0,29.76,North,357,1.0,6.0,77,0.00,,OVC044,0.01,VWS V12.07,2013-02-14 20:37:00,
2013-02-14 14:41:00,23.8,17.4,29.76,NW,304,2.0,4.0,76,0.00,,OVC044,0.01,VWS V12.07,2013-02-14 20:41:00,
2013-02-14 14:42:00,23.8,17.4,29.76,North,351,0.0,4.0,76,0.00,,OVC044,0.01,VWS V12.07,2013-02-14 20:42:00,
2013-02-14 14:46:00,23.8,17.4,29.78,WSW,243,0.0,4.0,76,0.00,,OVC044,0.01,VWS V12.07,2013-02-14 20:46:00,
2013-02-14 14:47:00,23.8,17.4,29.78,WSW,243,0.0,4.0,76,0.00,,OVC044,0.01,VWS V12.07,2013-02-14 20:47:00,
2013-02-14 14:52:00,23.8,17.4,29.78,North,7,3.0,5.0,76,0.00,,OVC033,0.01,VWS V12.07,2013-02-14 20:52:00,
2013-02-14 14:53:00,23.8,17.4,29.78,NNW,328,0.0,5.0,76,0.00,,OVC033,0.01,VWS V12.07,2013-02-14 20:53:00,
2013-02-14 14:57:00,23.8,17.4,29.78,NW,326,0.0,5.0,76,0.00,,OVC033,0.01,VWS V12.07,2013-02-14 20:57:00,
2013-02-14 14:58:00,23.9,17.5,29.78,NW,326,0.0,5.0,76,0.00,,OVC033,0.01,VWS V12.07,2013-02-14 20:58:00,
2013-02-14 15:02:00,23.9,17.5,29.79,NW,318,2.0,3.0,76,0.00,,OVC033,0.01,VWS V12.07,2013-02-14 21:02:00,
2013-02-14 15:03:00,23.9,17.5,29.79,NNW,333,1.0,4.0,76,0.00,,OVC033,0.01,VWS V12.07,2013-02-14 21:03:00,
2013-02-14 15:07:00,23.8,17.7,29.79,NNW,332,2.0,4.0,77,0.00,,OVC033,0.01,VWS V12.07,2013-02-14 21:07:00,
2013-02-14 15:08:00,23.8,17.7,29.79,NNW,332,0.0,4.0,77,0.00,,OVC033,0.01,VWS V12.07,2013-02-14 21:08:00,
2013-02-14 15:12:00,23.5,16.8,29.79,North,358,1.0,4.0,75,0.00,,OVC033,0.01,VWS V12.07,2013-02-14 21:12:00,
2013-02-14 15:13:00,23.3,16.6,29.79,North,358,1.0,4.0,75,0.00,,OVC033,0.01,VWS V12.07,2013-02-14 21:13:00,
2013-02-14 15:17:00,23.3,17.2,29.80,North,358,0.0,4.0,77,0.00,,OVC033,0.01,VWS V12.07,2013-02-14 21:17:00,
2013-02-14 15:18:00,23.3,17.2,29.80,North,358,0.0,4.0,77,0.00,,OVC033,0.01,VWS V12.07,2013-02-14 21:18:00,
2013-02-14 15:19:00,23.3,17.2,29.80,North,358,0.0,4.0,77,0.00,,OVC033,0.01,VWS V12.07,2013-02-14 21:19:00,
2013-02-14 15:22:00,23.3,17.2,29.80,North,0,3.0,4.0,77,0.00,,OVC033,0.01,VWS V12.07,2013-02-14 21:22:00,
2013-02-14 15:23:00,23.3,17.2,29.80,North,1,4.0,5.0,77,0.00,,OVC033,0.01,VWS V12.07,2013-02-14 21:23:00,
2013-02-14 15:24:00,23.3,16.9,29.80,North,1,0.0,5.0,76,0.00,,OVC033,0.01,VWS V12.07,2013-02-14 21:24:00,
2013-02-14 15:28:00,23.2,16.8,29.80,WNW,292,0.0,10.0,76,0.00,,OVC033,0.01,VWS V12.07,2013-02-14 21:28:00,
2013-02-14 15:29:00,23.0,16.6,29.80,North,352,1.0,10.0,76,0.00,,OVC033,0.01,VWS V12.07,2013-02-14 21:29:00,
2013-02-14 15:33:00,22.9,16.5,29.80,NNE,13,2.0,10.0,76,0.00,,OVC033,0.01,VWS V12.07,2013-02-14 21:33:00,
2013-02-14 15:34:00,22.7,16.6,29.80,North,0,1.0,10.0,77,0.00,,OVC033,0.01,VWS V12.07,2013-02-14 21:34:00,
2013-02-14 15:38:00,22.5,16.4,29.80,NNW,347,1.0,10.0,77,0.00,,OVC033,0.01,VWS V12.07,2013-02-14 21:38:00,
2013-02-14 15:39:00,22.4,16.6,29.80,NNW,347,0.0,10.0,78,0.00,,OVC033,0.01,VWS V12.07,2013-02-14 21:39:00,
2013-02-14 15:43:00,22.4,16.6,29.80,NNW,341,2.0,2.0,78,0.00,,,0.01,VWS V12.07,2013-02-14 21:43:00,
2013-02-14 15:44:00,22.2,16.4,29.80,NW,319,2.0,2.0,78,0.00,,,0.01,VWS V12.07,2013-02-14 21:44:00,
2013-02-14 15:48:00,22.1,16.3,29.82,North,6,1.0,4.0,78,0.00,,,0.01,VWS V12.07,2013-02-14 21:48:00,
2013-02-14 15:49:00,22.1,16.3,29.82,NE,41,1.0,4.0,78,0.00,,,0.01,VWS V12.07,2013-02-14 21:49:00,
2013-02-14 15:52:00,21.8,15.7,29.82,WSW,256,4.0,5.0,77,0.00,,,0.01,VWS V12.07,2013-02-14 21:52:00,
2013-02-14 15:54:00,21.6,15.5,29.82,North,356,2.0,6.0,77,0.00,,,0.01,VWS V12.07,2013-02-14 21:54:00,
2013-02-14 15:57:00,21.3,15.5,29.82,North,0,4.0,6.0,78,0.00,,,0.01,VWS V12.07,2013-02-14 21:57:00,
2013-02-14 15:59:00,21.3,15.5,29.82,North,358,1.0,0.0,78,0.00,,,0.01,VWS V12.07,2013-02-14 21:59:00,
2013-02-14 16:00:00,21.1,15.6,29.83,North,3,1.0,5.0,79,0.00,,,0.01,VWS V12.07,2013-02-14 22:00:00,
2013-02-14 16:02:00,21.1,15.6,29.83,NNW,335,0.0,5.0,79,0.00,,,0.01,VWS V12.07,2013-02-14 22:02:00,
2013-02-14 16:04:00,21.1,15.6,29.83,NNW,335,0.0,5.0,79,0.00,,,0.01,VWS V12.07,2013-02-14 22:04:00,
2013-02-14 16:06:00,21.1,15.6,29.83,NNW,335,1.0,5.0,79,0.00,,,0.01,VWS V12.07,2013-02-14 22:06:00,
2013-02-14 16:08:00,21.1,15.9,29.83,NW,323,0.0,5.0,80,0.00,,,0.01,VWS V12.07,2013-02-14 22:08:00,
2013-02-14 16:09:00,21.0,15.8,29.83,NW,323,1.0,5.0,80,0.00,,,0.01,VWS V12.07,2013-02-14 22:09:00,
2013-02-14 16:11:00,21.0,15.5,29.83,SE,144,2.0,5.0,79,0.00,,,0.01,VWS V12.07,2013-02-14 22:11:00,
2013-02-14 16:13:00,21.0,15.5,29.83,NNW,328,0.0,5.0,79,0.00,,,0.01,VWS V12.07,2013-02-14 22:13:00,
2013-02-14 16:14:00,20.8,15.6,29.83,WNW,283,1.0,5.0,80,0.00,,,0.01,VWS V12.07,2013-02-14 22:14:00,
2013-02-14 16:16:00,20.8,15.6,29.84,WNW,303,1.0,5.0,80,0.00,,,0.01,VWS V12.07,2013-02-14 22:16:00,
2013-02-14 16:19:00,20.8,15.6,29.84,North,0,0.0,4.0,80,0.00,,,0.01,VWS V12.07,2013-02-14 22:19:00,
2013-02-14 16:21:00,20.6,15.4,29.84,NNW,338,1.0,4.0,80,0.00,,,0.01,VWS V12.07,2013-02-14 22:21:00,
2013-02-14 16:24:00,20.6,15.4,29.84,NW,308,0.0,4.0,80,0.00,,,0.01,VWS V12.07,2013-02-14 22:24:00,
2013-02-14 16:25:00,20.5,15.3,29.84,NW,309,0.0,4.0,80,0.00,,,0.01,VWS V12.07,2013-02-14 22:25:00,
2013-02-14 16:26:00,20.5,15.3,29.84,North,0,1.0,4.0,80,0.00,,,0.01,VWS V12.07,2013-02-14 22:26:00,
2013-02-14 16:29:00,20.5,15.3,29.84,North,8,0.0,2.0,80,0.00,,,0.01,VWS V12.07,2013-02-14 22:29:00,
2013-02-14 16:30:00,20.5,15.6,29.85,NNE,25,1.0,3.0,81,0.00,,,0.01,VWS V12.07,2013-02-14 22:30:00,
2013-02-14 16:32:00,20.5,15.6,29.85,NNE,25,1.0,3.0,81,0.00,,,0.01,VWS V12.07,2013-02-14 22:32:00,
2013-02-14 16:34:00,20.3,15.4,29.85,NNE,27,0.0,4.0,81,0.00,,,0.01,VWS V12.07,2013-02-14 22:34:00,
2013-02-14 16:35:00,20.3,15.4,29.85,NNE,27,0.0,4.0,81,0.00,,,0.01,VWS V12.07,2013-02-14 22:35:00,
2013-02-14 16:37:00,20.3,15.7,29.85,NNE,27,0.0,4.0,82,0.00,,,0.01,VWS V12.07,2013-02-14 22:37:00,
2013-02-14 16:39:00,20.3,15.7,29.85,North,352,0.0,4.0,82,0.00,,,0.01,VWS V12.07,2013-02-14 22:39:00,
2013-02-14 16:40:00,20.3,15.7,29.85,North,352,1.0,4.0,82,0.00,,,0.01,VWS V12.07,2013-02-14 22:40:00,
2013-02-14 16:42:00,20.3,15.7,29.85,North,349,0.0,4.0,82,0.00,,,0.01,VWS V12.07,2013-02-14 22:42:00,
2013-02-14 16:44:00,20.3,15.7,29.86,North,349,1.0,3.0,82,0.00,,,0.01,VWS V12.07,2013-02-14 22:44:00,
2013-02-14 16:45:00,20.3,15.7,29.86,North,349,0.0,3.0,82,0.00,,,0.01,VWS V12.07,2013-02-14 22:45:00,
2013-02-14 16:46:00,20.3,15.7,29.86,North,349,1.0,3.0,82,0.00,,,0.01,VWS V12.07,2013-02-14 22:46:00,
2013-02-14 16:47:00,20.2,15.6,29.86,WSW,248,2.0,7.0,82,0.00,,,0.01,VWS V12.07,2013-02-14 22:47:00,
2013-02-14 16:49:00,20.2,15.3,29.86,North,10,0.0,7.0,81,0.00,,,0.01,VWS V12.07,2013-02-14 22:49:00,
2013-02-14 16:50:00,20.0,15.1,29.86,North,358,0.0,10.0,81,0.00,,,0.01,VWS V12.07,2013-02-14 22:50:00,
2013-02-14 16:51:00,20.0,15.1,29.86,North,358,0.0,10.0,81,0.00,,,0.01,VWS V12.07,2013-02-14 22:51:00,
2013-02-14 16:53:00,20.0,15.1,29.86,NNW,335,0.0,10.0,81,0.00,,,0.01,VWS V12.07,2013-02-14 22:53:00,
2013-02-14 16:55:00,19.9,14.7,29.86,North,357,0.0,10.0,80,0.00,,,0.01,VWS V12.07,2013-02-14 22:55:00,
2013-02-14 16:56:00,19.9,14.7,29.86,WNW,283,1.0,10.0,80,0.00,,,0.01,VWS V12.07,2013-02-14 22:56:00,
2013-02-14 16:58:00,19.7,14.5,29.86,WNW,284,0.0,10.0,80,0.00,,,0.01,VWS V12.07,2013-02-14 22:58:00,
2013-02-14 17:00:00,19.7,14.8,29.88,NW,324,0.0,10.0,81,0.00,,,0.01,VWS V12.07,2013-02-14 23:00:00,
2013-02-14 17:01:00,19.7,14.8,29.88,NW,324,0.0,10.0,81,0.00,,,0.01,VWS V12.07,2013-02-14 23:01:00,
2013-02-14 17:03:00,19.5,14.6,29.88,NNW,329,1.0,3.0,81,0.00,,,0.01,VWS V12.07,2013-02-14 23:03:00,
2013-02-14 17:05:00,19.4,14.2,29.88,NNE,30,2.0,3.0,80,0.00,,,0.01,VWS V12.07,2013-02-14 23:05:00,
2013-02-14 17:06:00,19.4,14.5,29.88,NNW,340,2.0,3.0,81,0.00,,,0.01,VWS V12.07,2013-02-14 23:06:00,
2013-02-14 17:08:00,19.2,14.3,29.88,NNW,340,1.0,2.0,81,0.00,,,0.01,VWS V12.07,2013-02-14 23:08:00,
2013-02-14 17:10:00,19.2,14.3,29.88,NNW,340,1.0,2.0,81,0.00,,,0.01,VWS V12.07,2013-02-14 23:10:00,
2013-02-14 17:11:00,19.2,14.3,29.88,NNW,340,1.0,2.0,81,0.00,,,0.01,VWS V12.07,2013-02-14 23:11:00,
2013-02-14 17:13:00,19.1,14.2,29.88,North,0,1.0,3.0,81,0.00,,,0.01,VWS V12.07,2013-02-14 23:13:00,
2013-02-14 17:16:00,18.9,14.0,29.89,North,0,0.0,3.0,81,0.00,,,0.01,VWS V12.07,2013-02-14 23:16:00,
2013-02-14 17:17:00,18.9,14.3,29.89,WSW,250,0.0,3.0,82,0.00,,,0.01,VWS V12.07,2013-02-14 23:17:00,
2013-02-14 17:19:00,18.9,14.3,29.89,North,0,0.0,4.0,82,0.00,,,0.01,VWS V12.07,2013-02-14 23:19:00,
2013-02-14 17:21:00,18.8,14.5,29.89,North,0,0.0,4.0,83,0.00,,,0.01,VWS V12.07,2013-02-14 23:21:00,
2013-02-14 17:22:00,18.8,14.5,29.89,North,0,0.0,4.0,83,0.00,,,0.01,VWS V12.07,2013-02-14 23:22:00,
2013-02-14 17:25:00,18.6,14.3,29.89,North,10,1.0,5.0,83,0.00,,,0.01,VWS V12.07,2013-02-14 23:25:00,
2013-02-14 17:26:00,18.6,14.3,29.89,North,357,0.0,5.0,83,0.00,,,0.01,VWS V12.07,2013-02-14 23:26:00,
2013-02-14 17:27:00,18.6,14.3,29.89,North,357,1.0,5.0,83,0.00,,,0.01,VWS V12.07,2013-02-14 23:27:00,
2013-02-14 17:30:00,18.4,14.1,29.91,North,358,0.0,3.0,83,0.00,,,0.01,VWS V12.07,2013-02-14 23:30:00,
2013-02-14 17:32:00,18.3,14.3,29.91,North,0,0.0,6.0,84,0.00,,,0.01,VWS V12.07,2013-02-14 23:32:00,
2013-02-14 17:36:00,18.1,14.1,29.91,NW,304,0.0,6.0,84,0.00,,,0.01,VWS V12.07,2013-02-14 23:36:00,
2013-02-14 17:37:00,18.1,14.1,29.91,West,268,2.0,2.0,84,0.00,,,0.01,VWS V12.07,2013-02-14 23:37:00,
2013-02-14 17:41:00,18.1,14.1,29.91,ENE,61,1.0,2.0,84,0.00,,,0.01,VWS V12.07,2013-02-14 23:41:00,
2013-02-14 17:42:00,18.0,14.0,29.91,NNE,23,0.0,2.0,84,0.00,,,0.01,VWS V12.07,2013-02-14 23:42:00,
2013-02-14 17:46:00,18.0,13.7,29.92,North,4,0.0,5.0,83,0.00,,,0.01,VWS V12.07,2013-02-14 23:46:00,
2013-02-14 17:47:00,18.0,13.7,29.92,North,358,2.0,2.0,83,0.00,,,0.01,VWS V12.07,2013-02-14 23:47:00,
2013-02-14 17:48:00,17.8,13.5,29.92,NNW,337,2.0,4.0,83,0.00,,,0.01,VWS V12.07,2013-02-14 23:48:00,
2013-02-14 17:51:00,17.8,13.2,29.92,NW,323,1.0,4.0,82,0.00,,,0.01,VWS V12.07,2013-02-14 23:51:00,
2013-02-14 17:53:00,17.7,13.1,29.92,NW,323,0.0,4.0,82,0.00,,,0.01,VWS V12.07,2013-02-14 23:53:00,
2013-02-14 17:56:00,17.7,13.1,29.92,North,11,0.0,4.0,82,0.00,,,0.01,VWS V12.07,2013-02-14 23:56:00,
2013-02-14 17:58:00,17.7,13.1,29.92,West,273,0.0,4.0,82,0.00,,,0.01,VWS V12.07,2013-02-14 23:58:00,
2013-02-14 18:01:00,17.7,13.1,29.93,West,267,0.0,3.0,82,0.00,,,0.01,VWS V12.07,2013-02-15 00:01:00,
2013-02-14 18:03:00,17.5,12.9,29.93,NE,40,0.0,3.0,82,0.00,,,0.01,VWS V12.07,2013-02-15 00:03:00,
2013-02-14 18:07:00,17.5,12.9,29.93,West,271,0.0,3.0,82,0.00,,,0.01,VWS V12.07,2013-02-15 00:07:00,
2013-02-14 18:08:00,17.5,12.9,29.93,West,271,1.0,3.0,82,0.00,,,0.01,VWS V12.07,2013-02-15 00:08:00,
2013-02-14 18:12:00,17.5,12.9,29.93,NNE,29,1.0,2.0,82,0.00,,,0.01,VWS V12.07,2013-02-15 00:12:00,
2013-02-14 18:13:00,17.5,12.9,29.93,NNE,19,2.0,2.0,82,0.00,,,0.01,VWS V12.07,2013-02-15 00:13:00,
2013-02-14 18:17:00,17.3,12.8,29.94,NNW,328,0.0,1.0,82,0.00,,,0.01,VWS V12.07,2013-02-15 00:17:00,
2013-02-14 18:18:00,17.3,12.8,29.94,North,6,0.0,2.0,82,0.00,,,0.01,VWS V12.07,2013-02-15 00:18:00,
2013-02-14 18:19:00,17.3,12.8,29.94,ENE,67,1.0,2.0,82,0.00,,,0.01,VWS V12.07,2013-02-15 00:19:00,
2013-02-14 18:22:00,17.2,12.7,29.94,NW,304,0.0,5.0,82,0.00,,,0.01,VWS V12.07,2013-02-15 00:22:00,
2013-02-14 18:24:00,17.2,12.7,29.94,NW,308,1.0,5.0,82,0.00,,,0.01,VWS V12.07,2013-02-15 00:24:00,
2013-02-14 18:27:00,17.0,12.5,29.94,WNW,282,4.0,6.0,82,0.00,,,0.01,VWS V12.07,2013-02-15 00:27:00,
2013-02-14 18:29:00,17.0,12.2,29.94,WNW,282,0.0,6.0,81,0.00,,,0.01,VWS V12.07,2013-02-15 00:29:00,
2013-02-14 18:33:00,17.0,12.5,29.94,NE,39,1.0,6.0,82,0.00,,,0.01,VWS V12.07,2013-02-15 00:33:00,
2013-02-14 18:34:00,17.0,12.5,29.94,NE,39,0.0,6.0,82,0.00,,,0.01,VWS V12.07,2013-02-15 00:34:00,
2013-02-14 18:38:00,16.9,12.4,29.94,NNW,330,1.0,6.0,82,0.00,,,0.01,VWS V12.07,2013-02-15 00:38:00,
2013-02-14 18:39:00,16.9,12.4,29.94,WNW,285,1.0,3.0,82,0.00,,,0.01,VWS V12.07,2013-02-15 00:39:00,
2013-02-14 18:43:00,16.7,11.9,29.94,ESE,118,0.0,5.0,81,0.00,,,0.01,VWS V12.07,2013-02-15 00:43:00,
2013-02-14 18:44:00,16.7,11.9,29.94,NNW,330,1.0,5.0,81,0.00,,,0.01,VWS V12.07,2013-02-15 00:44:00,
2013-02-14 18:45:00,16.7,11.9,29.95,SSW,193,1.0,5.0,81,0.00,,,0.01,VWS V12.07,2013-02-15 00:45:00,
2013-02-14 18:48:00,16.5,11.4,29.95,NNW,335,0.0,5.0,80,0.00,,,0.01,VWS V12.07,2013-02-15 00:48:00,
2013-02-14 18:49:00,16.5,11.4,29.95,NW,323,1.0,5.0,80,0.00,,,0.01,VWS V12.07,2013-02-15 00:49:00,
2013-02-14 18:50:00,16.5,11.4,29.95,NW,326,0.0,5.0,80,0.00,,,0.01,VWS V12.07,2013-02-15 00:50:00,
2013-02-14 18:53:00,16.5,11.4,29.95,NW,324,0.0,5.0,80,0.00,,,0.01,VWS V12.07,2013-02-15 00:53:00,
2013-02-14 18:55:00,16.5,11.7,29.95,NW,324,0.0,5.0,81,0.00,,,0.01,VWS V12.07,2013-02-15 00:55:00,
2013-02-14 18:56:00,16.4,11.6,29.95,NW,324,0.0,5.0,81,0.00,,,0.01,VWS V12.07,2013-02-15 00:56:00,
2013-02-14 18:58:00,16.4,11.6,29.95,NW,324,0.0,0.0,81,0.00,,,0.01,VWS V12.07,2013-02-15 00:58:00,
2013-02-14 19:00:00,16.4,11.9,29.94,NW,324,0.0,1.0,82,0.00,,,0.01,VWS V12.07,2013-02-15 01:00:00,
2013-02-14 19:01:00,16.4,11.9,29.94,NW,324,0.0,1.0,82,0.00,,,0.01,VWS V12.07,2013-02-15 01:01:00,
2013-02-14 19:03:00,16.4,11.9,29.94,WNW,290,1.0,2.0,82,0.00,,,0.01,VWS V12.07,2013-02-15 01:03:00,
2013-02-14 19:05:00,16.4,11.9,29.94,WNW,290,0.0,2.0,82,0.00,,,0.01,VWS V12.07,2013-02-15 01:05:00,
2013-02-14 19:06:00,16.2,11.7,29.94,WNW,290,0.0,2.0,82,0.00,,,0.01,VWS V12.07,2013-02-15 01:06:00,
2013-02-14 19:08:00,16.2,11.7,29.94,West,269,1.0,2.0,82,0.00,,,0.01,VWS V12.07,2013-02-15 01:08:00,
2013-02-14 19:10:00,16.2,11.7,29.94,West,269,0.0,2.0,82,0.00,,,0.01,VWS V12.07,2013-02-15 01:10:00,
2013-02-14 19:11:00,16.2,11.7,29.94,West,269,0.0,2.0,82,0.00,,,0.01,VWS V12.07,2013-02-15 01:11:00,
2013-02-14 19:13:00,16.2,12.0,29.94,West,269,0.0,2.0,83,0.00,,,0.01,VWS V12.07,2013-02-15 01:13:00,
2013-02-14 19:15:00,16.2,12.0,29.95,West,267,0.0,2.0,83,0.00,,,0.01,VWS V12.07,2013-02-15 01:15:00,
2013-02-14 19:16:00,16.2,12.0,29.95,West,267,0.0,2.0,83,0.00,,,0.01,VWS V12.07,2013-02-15 01:16:00,
2013-02-14 19:17:00,16.2,12.0,29.95,West,267,0.0,0.0,83,0.00,,,0.01,VWS V12.07,2013-02-15 01:17:00,
2013-02-14 19:19:00,16.1,11.9,29.95,West,271,1.0,1.0,83,0.00,,,0.01,VWS V12.07,2013-02-15 01:19:00,
2013-02-14 19:21:00,16.1,11.6,29.95,WNW,290,2.0,2.0,82,0.00,,,0.01,VWS V12.07,2013-02-15 01:21:00,
2013-02-14 19:23:00,16.1,11.6,29.95,NNW,330,0.0,3.0,82,0.00,,,0.01,VWS V12.07,2013-02-15 01:23:00,
2013-02-14 19:24:00,15.9,11.1,29.95,NNW,330,0.0,3.0,81,0.00,,,0.01,VWS V12.07,2013-02-15 01:24:00,
2013-02-14 19:26:00,15.9,11.1,29.95,ENE,64,0.0,3.0,81,0.00,,,0.01,VWS V12.07,2013-02-15 01:26:00,
2013-02-14 19:28:00,15.9,11.1,29.95,WSW,252,1.0,3.0,81,0.00,,,0.01,VWS V12.07,2013-02-15 01:28:00,
2013-02-14 19:29:00,15.7,10.6,29.95,WSW,254,0.0,3.0,80,0.00,,,0.01,VWS V12.07,2013-02-15 01:29:00,
2013-02-14 19:31:00,15.7,10.6,29.95,WSW,253,1.0,3.0,80,0.00,,,0.01,VWS V12.07,2013-02-15 01:31:00,
2013-02-14 19:33:00,15.7,10.6,29.95,WSW,253,0.0,3.0,80,0.00,,,0.01,VWS V12.07,2013-02-15 01:33:00,
2013-02-14 19:35:00,15.7,10.6,29.95,WNW,302,1.0,3.0,80,0.00,,,0.01,VWS V12.07,2013-02-15 01:35:00,
2013-02-14 19:36:00,15.7,10.6,29.95,SW,231,0.0,4.0,80,0.00,,,0.01,VWS V12.07,2013-02-15 01:36:00,
2013-02-14 19:38:00,15.7,10.6,29.95,SW,231,0.0,4.0,80,0.00,,,0.01,VWS V12.07,2013-02-15 01:38:00,
2013-02-14 19:40:00,15.6,10.5,29.95,SSW,211,0.0,2.0,80,0.00,,,0.01,VWS V12.07,2013-02-15 01:40:00,
2013-02-14 19:42:00,15.6,10.5,29.95,NW,311,0.0,3.0,80,0.00,,,0.01,VWS V12.07,2013-02-15 01:42:00,
2013-02-14 19:43:00,15.6,10.5,29.95,NW,311,1.0,3.0,80,0.00,,,0.01,VWS V12.07,2013-02-15 01:43:00,
2013-02-14 19:45:00,15.6,10.5,29.96,NW,311,0.0,3.0,80,0.00,,,0.01,VWS V12.07,2013-02-15 01:45:00,
2013-02-14 19:47:00,15.6,10.5,29.96,NW,311,1.0,2.0,80,0.00,,,0.01,VWS V12.07,2013-02-15 01:47:00,
2013-02-14 19:49:00,15.6,10.5,29.96,NW,311,2.0,4.0,80,0.00,,,0.01,VWS V12.07,2013-02-15 01:49:00,
2013-02-14 19:50:00,15.6,10.5,29.96,WNW,297,1.0,4.0,80,0.00,,,0.01,VWS V12.07,2013-02-15 01:50:00,
2013-02-14 19:52:00,15.4,10.1,29.96,WNW,295,0.0,4.0,79,0.00,,,0.01,VWS V12.07,2013-02-15 01:52:00,
2013-02-14 19:53:00,15.4,10.1,29.96,WNW,300,0.0,0.0,79,0.00,,,0.01,VWS V12.07,2013-02-15 01:53:00,
2013-02-14 19:54:00,15.4,10.1,29.96,WNW,300,0.0,4.0,79,0.00,,,0.01,VWS V12.07,2013-02-15 01:54:00,
2013-02-14 19:55:00,15.4,10.1,29.96,North,357,1.0,4.0,79,0.00,,,0.01,VWS V12.07,2013-02-15 01:55:00,
2013-02-14 19:57:00,15.4,10.1,29.96,North,8,1.0,3.0,79,0.00,,,0.01,VWS V12.07,2013-02-15 01:57:00,
2013-02-14 19:58:00,15.4,9.8,29.96,NNW,328,1.0,3.0,78,0.00,,,0.01,VWS V12.07,2013-02-15 01:58:00,
2013-02-14 19:59:00,15.4,9.8,29.96,NNW,329,0.0,3.0,78,0.00,,,0.01,VWS V12.07,2013-02-15 01:59:00,
2013-02-14 20:01:00,15.4,9.8,29.96,NNW,329,0.0,3.0,78,0.00,,,0.01,VWS V12.07,2013-02-15 02:01:00,
2013-02-14 20:02:00,15.4,9.8,29.96,NNW,329,0.0,3.0,78,0.00,,,0.01,VWS V12.07,2013-02-15 02:02:00,
2013-02-14 20:03:00,15.4,9.8,29.96,NNW,329,0.0,0.0,78,0.00,,,0.01,VWS V12.07,2013-02-15 02:03:00,
2013-02-14 20:04:00,15.4,9.8,29.96,NNW,329,0.0,3.0,78,0.00,,,0.01,VWS V12.07,2013-02-15 02:04:00,
2013-02-14 20:06:00,15.4,9.8,29.96,NNW,329,0.0,3.0,78,0.00,,,0.01,VWS V12.07,2013-02-15 02:06:00,
2013-02-14 20:08:00,15.4,10.1,29.96,NNW,329,0.0,3.0,79,0.00,,,0.01,VWS V12.07,2013-02-15 02:08:00,
2013-02-14 20:09:00,15.4,10.1,29.96,NNW,329,0.0,1.0,79,0.00,,,0.01,VWS V12.07,2013-02-15 02:09:00,
2013-02-14 20:11:00,15.4,9.8,29.96,NNW,329,0.0,1.0,78,0.00,,,0.01,VWS V12.07,2013-02-15 02:11:00,
2013-02-14 20:13:00,15.4,10.1,29.96,NNW,329,0.0,1.0,79,0.00,,,0.01,VWS V12.07,2013-02-15 02:13:00,
2013-02-14 20:14:00,15.4,10.1,29.96,NNW,329,0.0,1.0,79,0.00,,,0.01,VWS V12.07,2013-02-15 02:14:00,
2013-02-14 20:16:00,15.4,10.1,29.96,NNW,329,0.0,1.0,79,0.00,,,0.01,VWS V12.07,2013-02-15 02:16:00,
2013-02-14 20:18:00,15.4,10.1,29.96,NNW,329,0.0,1.0,79,0.00,,,0.01,VWS V12.07,2013-02-15 02:18:00,
2013-02-14 20:20:00,15.4,10.1,29.96,NNW,329,0.0,1.0,79,0.00,,,0.01,VWS V12.07,2013-02-15 02:20:00,
2013-02-14 20:21:00,15.2,9.9,29.96,NNW,329,0.0,1.0,79,0.00,,,0.01,VWS V12.07,2013-02-15 02:21:00,
2013-02-14 20:23:00,15.2,10.1,29.96,West,265,0.0,2.0,80,0.00,,,0.01,VWS V12.07,2013-02-15 02:23:00,
2013-02-14 20:24:00,15.2,10.1,29.96,West,265,0.0,2.0,80,0.00,,,0.01,VWS V12.07,2013-02-15 02:24:00,
2013-02-14 20:25:00,15.2,10.1,29.96,West,265,1.0,2.0,80,0.00,,,0.01,VWS V12.07,2013-02-15 02:25:00,
2013-02-14 20:27:00,15.2,10.1,29.96,West,265,0.0,0.0,80,0.00,,,0.01,VWS V12.07,2013-02-15 02:27:00,
2013-02-14 20:29:00,15.2,10.1,29.96,West,265,0.0,1.0,80,0.00,,,0.01,VWS V12.07,2013-02-15 02:29:00,
2013-02-14 20:30:00,15.2,10.1,29.97,West,265,0.0,1.0,80,0.00,,,0.01,VWS V12.07,2013-02-15 02:30:00,
2013-02-14 20:32:00,15.2,10.1,29.97,West,265,0.0,1.0,80,0.00,,,0.01,VWS V12.07,2013-02-15 02:32:00,
2013-02-14 20:34:00,15.2,10.1,29.97,West,281,0.0,1.0,80,0.00,,OVC031,0.01,VWS V12.07,2013-02-15 02:34:00,
2013-02-14 20:35:00,15.2,10.1,29.97,West,281,0.0,1.0,80,0.00,,OVC031,0.01,VWS V12.07,2013-02-15 02:35:00,
2013-02-14 20:37:00,15.2,10.1,29.97,West,281,0.0,1.0,80,0.00,,OVC031,0.01,VWS V12.07,2013-02-15 02:37:00,
2013-02-14 20:39:00,15.2,10.1,29.97,West,281,0.0,0.0,80,0.00,,OVC031,0.01,VWS V12.07,2013-02-15 02:39:00,
2013-02-14 20:40:00,15.1,10.1,29.97,West,281,0.0,0.0,80,0.00,,OVC031,0.01,VWS V12.07,2013-02-15 02:40:00,
2013-02-14 20:42:00,15.1,10.3,29.97,West,281,0.0,1.0,81,0.00,,OVC031,0.01,VWS V12.07,2013-02-15 02:42:00,
2013-02-14 20:44:00,15.1,10.3,29.97,West,281,0.0,1.0,81,0.00,,OVC031,0.01,VWS V12.07,2013-02-15 02:44:00,
2013-02-14 20:45:00,15.1,10.3,29.97,West,281,0.0,1.0,81,0.00,,OVC031,0.01,VWS V12.07,2013-02-15 02:45:00,
2013-02-14 20:47:00,15.1,10.3,29.97,West,281,0.0,1.0,81,0.00,,OVC031,0.01,VWS V12.07,2013-02-15 02:47:00,
2013-02-14 20:49:00,15.1,10.3,29.97,West,281,0.0,1.0,81,0.00,,OVC031,0.01,VWS V12.07,2013-02-15 02:49:00,
2013-02-14 20:50:00,15.1,10.3,29.97,West,281,0.0,1.0,81,0.00,,OVC033,0.01,VWS V12.07,2013-02-15 02:50:00,
2013-02-14 20:52:00,14.9,10.1,29.97,West,281,0.0,1.0,81,0.00,,OVC033,0.01,VWS V12.07,2013-02-15 02:52:00,
2013-02-14 20:54:00,14.9,10.1,29.97,West,281,0.0,1.0,81,0.00,,OVC033,0.01,VWS V12.07,2013-02-15 02:54:00,
2013-02-14 20:56:00,14.9,10.1,29.97,West,281,0.0,1.0,81,0.00,,OVC033,0.01,VWS V12.07,2013-02-15 02:56:00,
2013-02-14 20:57:00,14.9,10.1,29.97,West,281,0.0,1.0,81,0.00,,OVC033,0.01,VWS V12.07,2013-02-15 02:57:00,
2013-02-14 20:59:00,14.9,10.1,29.97,West,281,0.0,1.0,81,0.00,,OVC033,0.01,VWS V12.07,2013-02-15 02:59:00,
2013-02-14 21:00:00,14.9,10.1,29.97,West,281,0.0,1.0,81,0.00,,OVC033,0.01,VWS V12.07,2013-02-15 03:00:00,
2013-02-14 21:01:00,14.8,10.0,29.97,West,281,0.0,1.0,81,0.00,,OVC033,0.01,VWS V12.07,2013-02-15 03:01:00,
2013-02-14 21:03:00,14.8,10.0,29.97,West,281,0.0,1.0,81,0.00,,OVC033,0.01,VWS V12.07,2013-02-15 03:03:00,
2013-02-14 21:04:00,14.8,10.0,29.97,West,281,0.0,1.0,81,0.00,,OVC033,0.01,VWS V12.07,2013-02-15 03:04:00,
2013-02-14 21:05:00,14.8,10.0,29.97,West,281,0.0,1.0,81,0.00,,OVC033,0.01,VWS V12.07,2013-02-15 03:05:00,
2013-02-14 21:06:00,14.8,10.0,29.97,West,281,0.0,1.0,81,0.00,,OVC033,0.01,VWS V12.07,2013-02-15 03:06:00,
2013-02-14 21:08:00,14.6,9.8,29.97,West,281,0.0,0.0,81,0.00,,OVC033,0.01,VWS V12.07,2013-02-15 03:08:00,
2013-02-14 21:10:00,14.6,9.8,29.97,West,281,0.0,0.0,81,0.00,,OVC033,0.01,VWS V12.07,2013-02-15 03:10:00,
2013-02-14 21:11:00,14.6,9.8,29.97,West,281,0.0,0.0,81,0.00,,OVC033,0.01,VWS V12.07,2013-02-15 03:11:00,
2013-02-14 21:14:00,14.6,9.8,29.97,West,281,0.0,0.0,81,0.00,,OVC033,0.01,VWS V12.07,2013-02-15 03:14:00,
2013-02-14 21:16:00,14.6,9.8,29.97,West,281,0.0,0.0,81,0.00,,OVC033,0.01,VWS V12.07,2013-02-15 03:16:00,
2013-02-14 21:19:00,14.4,9.9,29.97,West,281,0.0,0.0,82,0.00,,OVC033,0.01,VWS V12.07,2013-02-15 03:19:00,
2013-02-14 21:21:00,14.4,9.9,29.97,West,281,0.0,0.0,82,0.00,,OVC033,0.01,VWS V12.07,2013-02-15 03:21:00,
2013-02-14 21:24:00,14.4,9.9,29.97,West,281,0.0,0.0,82,0.00,,OVC033,0.01,VWS V12.07,2013-02-15 03:24:00,
2013-02-14 21:26:00,14.4,9.9,29.97,West,281,0.0,0.0,82,0.00,,OVC033,0.01,VWS V12.07,2013-02-15 03:26:00,
2013-02-14 21:29:00,14.3,9.8,29.97,West,281,0.0,0.0,82,0.00,,OVC033,0.01,VWS V12.07,2013-02-15 03:29:00,
2013-02-14 21:31:00,14.3,9.8,29.97,West,281,0.0,0.0,82,0.00,,OVC033,0.01,VWS V12.07,2013-02-15 03:31:00,
2013-02-14 21:34:00,14.3,9.8,29.97,West,281,0.0,0.0,82,0.00,,OVC033,0.01,VWS V12.07,2013-02-15 03:34:00,
2013-02-14 21:36:00,14.3,9.8,29.97,West,281,0.0,0.0,82,0.00,,OVC033,0.01,VWS V12.07,2013-02-15 03:36:00,
2013-02-14 21:39:00,14.1,9.6,29.97,West,281,0.0,0.0,82,0.00,,OVC035,0.01,VWS V12.07,2013-02-15 03:39:00,
2013-02-14 21:41:00,14.1,9.6,29.97,West,281,0.0,0.0,82,0.00,,OVC035,0.01,VWS V12.07,2013-02-15 03:41:00,
2013-02-14 21:42:00,14.1,9.6,29.97,West,281,0.0,0.0,82,0.00,,OVC035,0.01,VWS V12.07,2013-02-15 03:42:00,
2013-02-14 21:44:00,14.0,9.5,29.97,West,281,0.0,0.0,82,0.00,,OVC035,0.01,VWS V12.07,2013-02-15 03:44:00,
2013-02-14 21:46:00,14.0,9.5,29.97,West,281,0.0,0.0,82,0.00,,OVC035,0.01,VWS V12.07,2013-02-15 03:46:00,
2013-02-14 21:47:00,14.0,9.5,29.97,West,281,0.0,0.0,82,0.00,,OVC035,0.01,VWS V12.07,2013-02-15 03:47:00,
2013-02-14 21:49:00,13.8,9.3,29.97,West,281,0.0,0.0,82,0.00,,OVC035,0.01,VWS V12.07,2013-02-15 03:49:00,
2013-02-14 21:51:00,13.8,9.3,29.97,West,281,0.0,0.0,82,0.00,,OVC035,0.01,VWS V12.07,2013-02-15 03:51:00,
2013-02-14 21:52:00,13.8,9.3,29.97,West,281,0.0,0.0,82,0.00,,OVC035,0.01,VWS V12.07,2013-02-15 03:52:00,
2013-02-14 21:54:00,13.6,9.1,29.97,West,281,0.0,0.0,82,0.00,,OVC035,0.01,VWS V12.07,2013-02-15 03:54:00,
2013-02-14 21:56:00,13.6,9.1,29.97,West,281,0.0,0.0,82,0.00,,OVC035,0.01,VWS V12.07,2013-02-15 03:56:00,
2013-02-14 21:57:00,13.6,9.1,29.97,West,281,0.0,0.0,82,0.00,,OVC035,0.01,VWS V12.07,2013-02-15 03:57:00,
2013-02-14 21:59:00,13.5,9.0,29.97,West,281,0.0,0.0,82,0.00,,OVC035,0.01,VWS V12.07,2013-02-15 03:59:00,
2013-02-14 22:01:00,13.5,9.0,29.97,West,281,0.0,0.0,82,0.00,,OVC035,0.01,VWS V12.07,2013-02-15 04:01:00,
2013-02-14 22:02:00,13.5,9.0,29.97,West,281,0.0,0.0,82,0.00,,OVC035,0.01,VWS V12.07,2013-02-15 04:02:00,
2013-02-14 22:04:00,13.5,9.0,29.97,West,281,0.0,0.0,82,0.00,,OVC035,0.01,VWS V12.07,2013-02-15 04:04:00,
2013-02-14 22:06:00,13.3,8.8,29.97,West,281,0.0,0.0,82,0.00,,OVC035,0.01,VWS V12.07,2013-02-15 04:06:00,
2013-02-14 22:07:00,13.3,8.8,29.97,West,281,0.0,0.0,82,0.00,,OVC035,0.01,VWS V12.07,2013-02-15 04:07:00,
2013-02-14 22:10:00,13.3,8.8,29.97,West,281,0.0,0.0,82,0.00,,OVC035,0.01,VWS V12.07,2013-02-15 04:10:00,
2013-02-14 22:12:00,13.3,8.8,29.97,West,281,2.0,2.0,82,0.00,,OVC035,0.01,VWS V12.07,2013-02-15 04:12:00,
2013-02-14 22:13:00,13.3,8.8,29.97,West,281,1.0,2.0,82,0.00,,OVC035,0.01,VWS V12.07,2013-02-15 04:13:00,
2013-02-14 22:15:00,13.3,8.8,29.97,West,281,0.0,2.0,82,0.00,,OVC035,0.01,VWS V12.07,2013-02-15 04:15:00,
2013-02-14 22:17:00,13.3,8.8,29.97,West,281,0.0,2.0,82,0.00,,OVC035,0.01,VWS V12.07,2013-02-15 04:17:00,
2013-02-14 22:18:00,13.1,8.6,29.97,West,281,0.0,2.0,82,0.00,,OVC035,0.01,VWS V12.07,2013-02-15 04:18:00,
2013-02-14 22:20:00,13.1,8.6,29.97,West,281,0.0,0.0,82,0.00,,OVC035,0.01,VWS V12.07,2013-02-15 04:20:00,
2013-02-14 22:22:00,13.1,8.6,29.97,West,281,0.0,0.0,82,0.00,,OVC035,0.01,VWS V12.07,2013-02-15 04:22:00,
2013-02-14 22:23:00,13.1,8.6,29.97,West,281,0.0,0.0,82,0.00,,OVC035,0.01,VWS V12.07,2013-02-15 04:23:00,
2013-02-14 22:26:00,13.1,8.6,29.97,West,281,0.0,0.0,82,0.00,,OVC035,0.01,VWS V12.07,2013-02-15 04:26:00,
2013-02-14 22:27:00,12.9,8.4,29.97,West,281,0.0,0.0,82,0.00,,OVC035,0.01,VWS V12.07,2013-02-15 04:27:00,
2013-02-14 22:28:00,12.9,8.4,29.97,West,281,0.0,0.0,82,0.00,,OVC035,0.01,VWS V12.07,2013-02-15 04:28:00,
2013-02-14 22:31:00,12.9,8.4,29.98,West,281,0.0,0.0,82,0.00,,OVC035,0.01,VWS V12.07,2013-02-15 04:31:00,
2013-02-14 22:33:00,12.9,8.4,29.98,West,281,0.0,1.0,82,0.00,,OVC035,0.01,VWS V12.07,2013-02-15 04:33:00,
2013-02-14 22:34:00,12.9,8.4,29.98,West,281,0.0,1.0,82,0.00,,BKN035,0.01,VWS V12.07,2013-02-15 04:34:00,
2013-02-14 22:36:00,12.8,8.4,29.98,West,281,0.0,1.0,82,0.00,,BKN035,0.01,VWS V12.07,2013-02-15 04:36:00,
2013-02-14 22:38:00,12.8,8.4,29.98,West,281,0.0,0.0,82,0.00,,BKN035,0.01,VWS V12.07,2013-02-15 04:38:00,
2013-02-14 22:40:00,12.8,8.4,29.98,West,281,0.0,0.0,82,0.00,,BKN035,0.01,VWS V12.07,2013-02-15 04:40:00,
2013-02-14 22:41:00,12.8,8.4,29.98,West,281,0.0,0.0,82,0.00,,BKN035,0.01,VWS V12.07,2013-02-15 04:41:00,
2013-02-14 22:43:00,12.6,8.2,29.98,West,281,0.0,0.0,82,0.00,,BKN035,0.01,VWS V12.07,2013-02-15 04:43:00,
2013-02-14 22:45:00,12.6,8.2,29.98,West,281,0.0,0.0,82,0.00,,BKN035,0.01,VWS V12.07,2013-02-15 04:45:00,
2013-02-14 22:46:00,12.6,8.2,29.98,West,281,0.0,0.0,82,0.00,,BKN035,0.01,VWS V12.07,2013-02-15 04:46:00,
2013-02-14 22:48:00,12.6,8.2,29.98,West,281,0.0,0.0,82,0.00,,SCT033,0.01,VWS V12.07,2013-02-15 04:48:00,
2013-02-14 22:50:00,12.4,8.0,29.98,West,281,0.0,0.0,82,0.00,,SCT033,0.01,VWS V12.07,2013-02-15 04:50:00,
2013-02-14 22:52:00,12.4,8.0,29.98,West,281,0.0,0.0,82,0.00,,SCT033,0.01,VWS V12.07,2013-02-15 04:52:00,
2013-02-14 22:53:00,12.4,8.0,29.98,West,281,0.0,0.0,82,0.00,,SCT033,0.01,VWS V12.07,2013-02-15 04:53:00,
2013-02-14 22:54:00,12.4,8.0,29.98,West,281,0.0,0.0,82,0.00,,SCT033,0.01,VWS V12.07,2013-02-15 04:54:00,
2013-02-14 22:55:00,12.4,8.0,29.98,West,281,0.0,0.0,82,0.00,,SCT033,0.01,VWS V12.07,2013-02-15 04:55:00,
2013-02-14 22:57:00,12.3,7.9,29.98,West,281,0.0,0.0,82,0.00,,OVC035,0.01,VWS V12.07,2013-02-15 04:57:00,
2013-02-14 22:58:00,12.3,7.9,29.98,West,281,0.0,0.0,82,0.00,,SCT033,0.01,VWS V12.07,2013-02-15 04:58:00,
2013-02-14 22:59:00,12.3,7.9,29.98,West,281,0.0,0.0,82,0.00,,SCT033,0.01,VWS V12.07,2013-02-15 04:59:00,
2013-02-14 23:00:00,12.3,7.9,29.99,West,281,0.0,0.0,82,0.00,,SCT033,0.01,VWS V12.07,2013-02-15 05:00:00,
2013-02-14 23:05:00,12.3,8.1,29.99,West,281,0.0,0.0,83,0.00,,SCT033,0.01,VWS V12.07,2013-02-15 05:05:00,
2013-02-14 23:06:00,12.1,7.9,29.99,West,281,0.0,0.0,83,0.00,,SCT033,0.01,VWS V12.07,2013-02-15 05:06:00,
2013-02-14 23:10:00,12.3,8.1,29.99,West,281,0.0,0.0,83,0.00,,SCT033,0.01,VWS V12.07,2013-02-15 05:10:00,
2013-02-14 23:11:00,12.3,8.1,29.99,West,281,0.0,0.0,83,0.00,,SCT033,0.01,VWS V12.07,2013-02-15 05:11:00,
2013-02-14 23:15:00,12.3,8.1,29.99,West,281,0.0,0.0,83,0.00,,SCT033,0.01,VWS V12.07,2013-02-15 05:15:00,
2013-02-14 23:16:00,12.3,8.1,29.99,West,281,0.0,0.0,83,0.00,,SCT033,0.01,VWS V12.07,2013-02-15 05:16:00,
2013-02-14 23:20:00,12.3,8.1,29.99,West,281,0.0,1.0,83,0.00,,SCT033,0.01,VWS V12.07,2013-02-15 05:20:00,
2013-02-14 23:21:00,12.3,8.1,29.99,North,7,1.0,1.0,83,0.00,,SCT033,0.01,VWS V12.07,2013-02-15 05:21:00,
2013-02-14 23:25:00,12.4,8.5,29.99,North,358,0.0,3.0,84,0.00,,SCT033,0.01,VWS V12.07,2013-02-15 05:25:00,
2013-02-14 23:26:00,12.4,8.5,29.99,North,358,0.0,3.0,84,0.00,,SCT033,0.01,VWS V12.07,2013-02-15 05:26:00,
2013-02-14 23:31:00,12.4,8.5,29.99,North,358,0.0,0.0,84,0.00,,SCT033,0.01,VWS V12.07,2013-02-15 05:31:00,
2013-02-14 23:32:00,12.4,8.5,29.99,North,358,0.0,0.0,84,0.00,,SCT033,0.01,VWS V12.07,2013-02-15 05:32:00,
2013-02-14 23:36:00,12.4,8.5,29.99,North,358,0.0,0.0,84,0.00,,SCT031,0.01,VWS V12.07,2013-02-15 05:36:00,
2013-02-14 23:37:00,12.4,8.5,29.99,North,358,0.0,0.0,84,0.00,,SCT031,0.01,VWS V12.07,2013-02-15 05:37:00,
2013-02-14 23:41:00,12.4,8.5,29.99,North,358,0.0,0.0,84,0.00,,SCT031,0.01,VWS V12.07,2013-02-15 05:41:00,
2013-02-14 23:42:00,12.4,8.5,29.99,North,358,0.0,0.0,84,0.00,,SCT031,0.01,VWS V12.07,2013-02-15 05:42:00,
2013-02-14 23:46:00,12.4,8.5,29.96,North,358,0.0,0.0,84,0.00,,SCT031,0.00,VWS V12.07,2013-02-15 05:46:00,
2013-02-14 23:48:00,12.4,8.5,29.96,North,358,0.0,0.0,84,0.00,,,0.00,VWS V12.07,2013-02-15 05:48:00,
2013-02-14 23:51:00,12.4,8.5,29.96,North,358,0.0,0.0,84,0.00,,,0.00,VWS V12.07,2013-02-15 05:51:00,
2013-02-14 23:52:00,12.4,8.5,29.96,North,358,0.0,0.0,84,0.00,,,0.00,VWS V12.07,2013-02-15 05:52:00,
2013-02-14 23:53:00,12.4,8.5,29.96,North,358,0.0,0.0,84,0.00,,,0.00,VWS V12.07,2013-02-15 05:53:00,
2013-02-14 23:56:00,12.4,8.5,29.96,North,358,0.0,0.0,84,0.00,,,0.00,VWS V12.07,2013-02-15 05:56:00,
2013-02-14 23:57:00,12.4,8.5,29.96,North,358,0.0,0.0,84,0.00,,,0.00,VWS V12.07,2013-02-15 05:57:00,
2013-02-14 23:58:00,12.4,8.5,29.96,North,358,0.0,0.0,84,0.00,,,0.00,VWS V12.07,2013-02-15 05:58:00,